Flight Track Log - Related Links

Times and Time Zones

All times are in EDT time to prevent confusion due to time zone crossing. See the MSR967 flight status page for this flight to view local times or setup timezone preferences in your user account.

Time Position Orientation Groundspeed Altitude Reporting Facility
EDT Latitude Longitude Course Direction KTS MPH feet Rate Location/Type
Thu 05:30:33 PM 25.3150 55.4830 302° West 192 221 900  Level FlightAware ADS-B
Thu 05:30:43 PM 25.3180 55.4770 299° West 185 213 1,400 2,057 Climbing FlightAware ADS-B
Thu 05:31:08 PM 25.3300 55.4550 301° West 199 229 2,100 1,500 Climbing FlightAware ADS-B
Thu 05:31:23 PM 25.3410 55.4360 303° West 221 254 2,400 360 Climbing FlightAware ADS-B
Thu 05:31:58 PM 25.3540 55.4100 299° West 225 259 2,400 2,400 Level FlightAware ADS-B
Thu 05:32:28 PM 25.3760 55.3700 301° West 227 261 5,000 3,273 Climbing FlightAware ADS-B
Thu 05:32:53 PM 25.3920 55.3400 301° West 262 302 5,400 1,050 Climbing FlightAware ADS-B
Thu 05:33:08 PM 25.3950 55.3240 282° West 263 303 5,700 1,200 Climbing FlightAware ADS-B
Thu 05:33:33 PM 25.3830 55.2860 251° West 291 335 6,200 982 Climbing FlightAware ADS-B
Thu 05:34:03 PM 25.3640 55.2430 244° Southwest 320 368 6,600 840 Climbing FlightAware ADS-B
Thu 05:34:23 PM 25.3500 55.2110 244° Southwest 344 396 6,900 2,463 Climbing FlightAware ADS-B
Thu 05:35:38 PM 25.2990 55.0930 244° Southwest 312 359 10,500 2,850 Climbing FlightAware ADS-B
Thu 05:36:23 PM 25.2740 55.0340 245° Southwest 297 342 12,600 1,835 Climbing FlightAware ADS-B
Thu 05:37:03 PM 25.2480 54.9750 244° Southwest 334 384 13,100 720 Climbing FlightAware ADS-B
Thu 05:37:38 PM 25.2260 54.9160 248° West 362 417 13,500 1,100 Climbing FlightAware ADS-B
Thu 05:38:03 PM 25.2310 54.8680 277° West 363 418 14,200 1,662 Climbing FlightAware ADS-B
Thu 05:38:43 PM 25.2490 54.7980 286° West 371 427 15,300 1,553 Climbing FlightAware ADS-B
Thu 05:39:28 PM 25.2680 54.7200 285° West 378 435 16,400 1,126 Climbing FlightAware ADS-B
Thu 05:42:00 PM 25.3556 54.4299 289° West  Level Estimated
Thu 05:43:00 PM 25.3900 54.3152 288° West  Level Estimated
Thu 05:44:00 PM 25.4244 54.2005 288° West  Level Estimated
Thu 05:45:00 PM 25.4586 54.0857 288° West  Level Estimated
Thu 05:46:00 PM 25.4928 53.9709 288° West  Level Estimated
Thu 05:47:00 PM 25.5269 53.8560 288° West  Level Estimated
Thu 05:48:00 PM 25.5608 53.7410 288° West  Level Estimated
Thu 05:49:00 PM 25.5947 53.6260 288° West  Level Estimated
Thu 05:50:00 PM 25.6285 53.5109 288° West  Level Estimated
Thu 05:51:00 PM 25.6622 53.3957 288° West  Level Estimated
Thu 05:52:00 PM 25.6959 53.2805 288° West  Level Estimated
Thu 05:53:00 PM 25.7294 53.1652 288° West  Level Estimated
Thu 05:53:38 PM 25.7480 53.0150 288° West 410 472 32,100  Level FlightAware ADS-B
Thu 05:54:23 PM 25.7690 52.9240 284° West 397 457 32,900 1,050 Climbing FlightAware ADS-B
Thu 05:54:58 PM 25.7790 52.8540 279° West 391 450 33,500 880 Climbing FlightAware ADS-B
Thu 05:55:38 PM 25.7900 52.7820 280° West 389 448 34,000 333 Climbing FlightAware ADS-B
Thu 05:56:28 PM 25.8070 52.6690 280° West 403 464 34,000  Level FlightAware ADS-B
Thu 05:57:23 PM 25.8230 52.5580 279° West 413 475 34,000  Level FlightAware ADS-B
Thu 05:57:58 PM 25.8380 52.4830 283° West 414 476 34,000  Level FlightAware ADS-B
Thu 05:58:48 PM 25.8730 52.3850 292° West 421 484 34,000  Level FlightAware ADS-B
Thu 06:00:33 PM 25.9690 52.1890 299° West 433 498 34,000  Level FlightAware ADS-B
Thu 06:01:48 PM 26.0400 52.0430 298° West 427 491 34,000  Level FlightAware ADS-B
Thu 06:02:58 PM 26.1070 51.9060 299° West 425 489 34,000  Level FlightAware ADS-B
Thu 06:04:08 PM 26.1720 51.7720 298° West 428 493 34,000  Level FlightAware ADS-B
Thu 06:05:18 PM 26.2350 51.6320 297° West 429 494 34,000  Level FlightAware ADS-B
Thu 06:06:28 PM 26.2980 51.4950 297° West 428 493 34,000  Level FlightAware ADS-B
Thu 06:07:38 PM 26.3590 51.3570 296° West 423 487 34,000  Level FlightAware ADS-B
Thu 06:08:48 PM 26.4160 51.2190 295° West 424 488 34,000  Level FlightAware ADS-B
Thu 06:09:58 PM 26.4740 51.0780 295° West 425 489 34,000  Level FlightAware ADS-B
Thu 06:11:08 PM 26.5300 50.9390 294° West 422 486 34,000  Level FlightAware ADS-B
Thu 06:12:18 PM 26.5790 50.7970 291° West 419 482 34,000  Level FlightAware ADS-B
Thu 06:12:53 PM 26.6030 50.7260 291° West 420 483 34,000  Level FlightAware ADS-B
Thu 06:13:43 PM 26.6380 50.6240 291° West 421 484 34,000  Level FlightAware ADS-B
Thu 06:14:18 PM 26.6630 50.5500 291° West 421 484 34,000  Level FlightAware ADS-B
Thu 06:14:58 PM 26.6850 50.4800 289° West 421 484 34,000  Level FlightAware ADS-B
Thu 06:15:38 PM 26.7170 50.3900 292° West 419 482 34,000  Level FlightAware ADS-B
Thu 06:16:23 PM 26.7390 50.3030 286° West 419 482 34,000  Level FlightAware ADS-B
Thu 06:17:03 PM 26.7520 50.2120 279° West 420 483 34,000  Level FlightAware ADS-B
Thu 06:17:33 PM 26.7410 50.1400 260° West 405 466 34,000  Level FlightAware ADS-B
Thu 06:18:08 PM 26.7400 50.0740 269° West 404 465 34,000  Level FlightAware ADS-B
Thu 06:18:58 PM 26.7380 49.9850 269° West 404 465 34,000  Level FlightAware ADS-B
Thu 06:19:38 PM 26.7370 49.9130 269° West 404 465 34,000  Level FlightAware ADS-B
Thu 06:20:18 PM 26.7360 49.8420 269° West 404 465 34,000  Level FlightAware ADS-B
Thu 06:21:03 PM 26.7270 49.6960 266° West 412 474 34,000  Level FlightAware ADS-B
Thu 06:21:38 PM 26.7250 49.6240 268° West 410 472 34,000  Level FlightAware ADS-B
Thu 06:22:43 PM 26.7200 49.4980 267° West 410 472 34,000  Level FlightAware ADS-B
Thu 06:23:23 PM 26.7170 49.4030 268° West 409 471 34,000  Level FlightAware ADS-B
Thu 06:24:03 PM 26.7170 49.3160 270° West 411 473 34,000  Level FlightAware ADS-B
Thu 06:24:48 PM 26.7230 49.2310 275° West 411 473 34,000  Level FlightAware ADS-B
Thu 06:25:28 PM 26.7300 49.1380 275° West 411 473 34,000  Level FlightAware ADS-B
Thu 06:26:13 PM 26.7370 49.0420 275° West 411 473 34,000  Level FlightAware ADS-B
Thu 06:26:53 PM 26.7420 48.9620 274° West 411 473 34,000  Level FlightAware ADS-B
Thu 06:27:38 PM 26.7490 48.8620 275° West 411 473 34,000  Level FlightAware ADS-B
Thu 06:28:18 PM 26.7540 48.7780 274° West 411 473 34,000  Level FlightAware ADS-B
Thu 06:28:58 PM 26.7600 48.6940 275° West 411 473 34,000  Level FlightAware ADS-B
Thu 06:29:43 PM 26.7660 48.5970 274° West 414 476 34,000  Level FlightAware ADS-B
Thu 06:30:23 PM 26.7720 48.5110 274° West 414 476 34,000  Level FlightAware ADS-B
Thu 06:31:08 PM 26.7780 48.4140 274° West 416 479 34,000  Level FlightAware ADS-B
Thu 06:31:48 PM 26.7840 48.3280 274° West 418 481 34,000  Level FlightAware ADS-B
Thu 06:32:28 PM 26.7890 48.2460 274° West 420 483 34,000  Level FlightAware ADS-B
Thu 06:33:13 PM 26.7950 48.1450 274° West 421 484 34,000  Level FlightAware ADS-B
Thu 06:33:53 PM 26.8010 48.0590 274° West 421 484 34,000  Level FlightAware ADS-B
Thu 06:34:38 PM 26.8070 47.9600 274° West 421 484 34,000  Level FlightAware ADS-B
Thu 06:35:18 PM 26.8120 47.8730 274° West 421 484 34,000  Level FlightAware ADS-B
Thu 06:35:58 PM 26.8180 47.7850 274° West 421 484 34,000  Level FlightAware ADS-B
Thu 06:36:43 PM 26.8230 47.6870 273° West 422 486 34,000  Level FlightAware ADS-B
Thu 06:37:23 PM 26.8290 47.6000 274° West 423 487 34,000  Level FlightAware ADS-B
Thu 06:38:08 PM 26.8350 47.5020 274° West 424 488 34,000  Level FlightAware ADS-B
Thu 06:38:48 PM 26.8400 47.4140 274° West 424 488 34,000  Level FlightAware ADS-B
Thu 06:39:33 PM 26.8450 47.3150 273° West 425 489 34,000  Level FlightAware ADS-B
Thu 06:40:13 PM 26.8500 47.2270 274° West 425 489 34,000  Level FlightAware ADS-B
Thu 06:40:58 PM 26.8560 47.1300 274° West 425 489 34,000  Level FlightAware ADS-B
Thu 06:41:38 PM 26.8610 47.0410 274° West 424 488 34,000  Level FlightAware ADS-B
Thu 06:42:18 PM 26.8660 46.9540 274° West 424 488 34,000  Level FlightAware ADS-B
Thu 06:43:03 PM 26.8710 46.8550 273° West 423 487 34,000  Level FlightAware ADS-B
Thu 06:43:43 PM 26.8760 46.7680 274° West 423 487 34,000  Level FlightAware ADS-B
Thu 06:44:28 PM 26.8810 46.6690 273° West 424 488 34,000  Level FlightAware ADS-B
Thu 06:45:08 PM 26.8860 46.5820 274° West 424 488 34,000  Level FlightAware ADS-B
Thu 06:45:48 PM 26.8910 46.4930 274° West 425 489 34,000  Level FlightAware ADS-B
Thu 06:46:33 PM 26.8960 46.3940 273° West 427 491 34,000  Level FlightAware ADS-B
Thu 06:47:13 PM 26.9080 46.3080 279° West 428 493 34,000  Level FlightAware ADS-B
Thu 06:47:58 PM 26.9230 46.2080 280° West 438 504 34,000  Level FlightAware ADS-B
Thu 06:48:38 PM 26.9360 46.1180 279° West 443 510 34,000  Level FlightAware ADS-B
Thu 06:49:18 PM 26.9490 46.0270 279° West 442 509 34,000  Level FlightAware ADS-B
Thu 06:50:03 PM 26.9640 45.9250 279° West 443 510 34,000  Level FlightAware ADS-B
Thu 06:50:43 PM 26.9770 45.8350 279° West 443 510 34,000  Level FlightAware ADS-B
Thu 06:51:23 PM 26.9900 45.7430 279° West 444 511 34,000  Level FlightAware ADS-B
Thu 06:52:08 PM 27.0040 45.6420 279° West 445 512 34,000  Level FlightAware ADS-B
Thu 06:52:48 PM 27.0170 45.5490 279° West 444 511 34,000  Level FlightAware ADS-B
Thu 06:53:33 PM 27.0320 45.4480 279° West 444 511 34,000  Level FlightAware ADS-B
Thu 06:54:13 PM 27.0430 45.3560 278° West 445 512 34,000  Level FlightAware ADS-B
Thu 06:54:48 PM 27.0500 45.2910 277° West 444 511 34,000  Level FlightAware ADS-B
Thu 06:55:38 PM 27.0590 45.1930 276° West 444 511 34,000  Level FlightAware ADS-B
Thu 06:57:18 PM 27.0890 44.9410 278° West 34,000  Level FlightAware ADS-B
Thu 06:57:53 PM 27.0970 44.8660 277° West 34,000  Level FlightAware ADS-B
Thu 07:00:00 PM 27.1664 44.6184 288° West  Level Estimated
Thu 07:01:00 PM 27.1990 44.5013 287° West  Level Estimated
Thu 07:02:00 PM 27.2315 44.3841 287° West  Level Estimated
Thu 07:03:00 PM 27.2639 44.2668 287° West  Level Estimated
Thu 07:04:00 PM 27.2963 44.1495 287° West  Level Estimated
Thu 07:05:00 PM 27.3285 44.0322 287° West  Level Estimated
Thu 07:06:00 PM 27.3606 43.9147 287° West  Level Estimated
Thu 07:07:00 PM 27.3927 43.7972 287° West  Level Estimated
Thu 07:08:00 PM 27.4246 43.6796 287° West  Level Estimated
Thu 07:09:00 PM 27.4564 43.5620 287° West  Level Estimated
Thu 07:10:00 PM 27.4882 43.4443 287° West  Level Estimated
Thu 07:11:00 PM 27.5198 43.3265 287° West  Level Estimated
Thu 07:12:00 PM 27.5514 43.2086 287° West  Level Estimated
Thu 07:13:00 PM 27.5828 43.0907 287° West  Level Estimated
Thu 07:14:00 PM 27.6141 42.9728 287° West  Level Estimated
Thu 07:15:00 PM 27.6454 42.8547 287° West  Level Estimated
Thu 07:16:00 PM 27.6765 42.7366 287° West  Level Estimated
Thu 07:17:00 PM 27.7076 42.6184 287° West  Level Estimated
Thu 07:18:00 PM 27.7385 42.5001 286° West  Level Estimated
Thu 07:19:00 PM 27.7694 42.3818 286° West  Level Estimated
Thu 07:20:00 PM 27.8001 42.2634 286° West  Level Estimated
Thu 07:21:00 PM 27.8307 42.1450 286° West  Level Estimated
Thu 07:22:00 PM 27.8613 42.0265 286° West  Level Estimated
Thu 07:23:00 PM 27.8917 41.9079 286° West  Level Estimated
Thu 07:24:00 PM 27.9220 41.7892 286° West  Level Estimated
Thu 07:25:00 PM 27.9523 41.6705 286° West  Level Estimated
Thu 07:26:00 PM 27.9824 41.5517 286° West  Level Estimated
Thu 07:27:00 PM 28.0124 41.4329 286° West  Level Estimated
Thu 07:28:00 PM 28.0424 41.3139 286° West  Level Estimated
Thu 07:29:00 PM 28.0722 41.1950 286° West  Level Estimated
Thu 07:30:00 PM 28.1019 41.0759 286° West  Level Estimated
Thu 07:31:00 PM 28.1315 40.9568 286° West  Level Estimated
Thu 07:32:00 PM 28.1610 40.8376 286° West  Level Estimated
Thu 07:33:00 PM 28.1905 40.7183 286° West  Level Estimated
Thu 07:34:00 PM 28.2198 40.5990 286° West  Level Estimated
Thu 07:35:00 PM 28.2490 40.4797 286° West  Level Estimated
Thu 07:36:00 PM 28.2781 40.3602 285° West  Level Estimated
Thu 07:37:00 PM 28.3071 40.2407 285° West  Level Estimated
Thu 07:38:00 PM 28.3360 40.1211 285° West  Level Estimated
Thu 07:39:00 PM 28.3647 40.0015 285° West  Level Estimated
Thu 07:40:00 PM 28.3934 39.8818 285° West  Level Estimated
Thu 07:41:00 PM 28.4220 39.7620 285° West  Level Estimated
Thu 07:42:00 PM 28.4505 39.6422 285° West  Level Estimated
Thu 07:43:00 PM 28.4789 39.5223 285° West  Level Estimated
Thu 07:44:00 PM 28.5071 39.4023 285° West  Level Estimated
Thu 07:45:00 PM 28.5353 39.2823 285° West  Level Estimated
Thu 07:46:00 PM 28.5633 39.1622 285° West  Level Estimated
Thu 07:47:00 PM 28.5913 39.0420 285° West  Level Estimated
Thu 07:48:00 PM 28.6191 38.9218 285° West  Level Estimated
Thu 07:49:00 PM 28.6469 38.8015 285° West  Level Estimated
Thu 07:50:00 PM 28.6745 38.6812 285° West  Level Estimated
Thu 07:51:00 PM 28.7020 38.5608 285° West  Level Estimated
Thu 07:52:00 PM 28.7294 38.4403 285° West  Level Estimated
Thu 07:53:00 PM 28.7567 38.3198 285° West  Level Estimated
Thu 07:54:00 PM 28.7839 38.1992 284° West  Level Estimated
Thu 07:55:00 PM 28.8110 38.0785 284° West  Level Estimated
Thu 07:56:00 PM 28.8380 37.9578 284° West  Level Estimated
Thu 07:57:00 PM 28.8649 37.8370 284° West  Level Estimated
Thu 07:58:00 PM 28.8917 37.7161 284° West  Level Estimated
Thu 07:59:00 PM 28.9184 37.5952 284° West  Level Estimated
Thu 08:00:00 PM 28.9449 37.4743 284° West  Level Estimated
Thu 08:01:00 PM 28.9714 37.3532 284° West  Level Estimated
Thu 08:02:00 PM 28.9977 37.2321 284° West  Level Estimated
Thu 08:03:00 PM 29.0239 37.1110 284° West  Level Estimated
Thu 08:04:00 PM 29.0501 36.9897 284° West  Level Estimated
Thu 08:05:00 PM 29.0761 36.8685 284° West  Level Estimated
Thu 08:06:00 PM 29.1020 36.7471 284° West  Level Estimated
Thu 08:07:00 PM 29.1278 36.6257 284° West  Level Estimated
Thu 08:08:00 PM 29.1535 36.5043 284° West  Level Estimated
Thu 08:09:00 PM 29.1790 36.3828 284° West  Level Estimated
Thu 08:10:00 PM 29.2045 36.2612 284° West  Level Estimated
Thu 08:11:00 PM 29.2299 36.1395 283° West  Level Estimated
Thu 08:12:00 PM 29.2551 36.0178 283° West  Level Estimated
Thu 08:13:00 PM 29.2803 35.8960 283° West  Level Estimated
Thu 08:14:00 PM 29.3053 35.7742 283° West  Level Estimated
Thu 08:15:00 PM 29.3302 35.6523 283° West  Level Estimated
Thu 08:16:00 PM 29.3550 35.5304 283° West  Level Estimated
Thu 08:17:00 PM 29.3797 35.4084 283° West  Level Estimated
Thu 08:18:00 PM 29.4043 35.2863 283° West  Level Estimated
Thu 08:19:00 PM 29.4287 35.1642 283° West  Level Estimated
Thu 08:20:00 PM 29.4531 35.0420 283° West  Level Estimated
Thu 08:21:00 PM 29.4774 34.9198 283° West  Level Estimated
Thu 08:22:00 PM 29.5015 34.7975 283° West  Level Estimated
Thu 08:23:00 PM 29.5255 34.6751 283° West  Level Estimated
Thu 08:24:00 PM 29.5494 34.5527 283° West  Level Estimated
Thu 08:25:00 PM 29.5732 34.4302 283° West  Level Estimated
Thu 08:26:00 PM 29.5969 34.3077 283° West  Level Estimated
Thu 08:27:00 PM 29.6205 34.1851 283° West  Level Estimated
Thu 08:28:00 PM 29.6439 34.0625 282° West  Level Estimated
Thu 08:29:00 PM 29.6673 33.9398 282° West  Level Estimated
Thu 08:30:00 PM 29.6905 33.8170 282° West  Level Estimated
Thu 08:31:00 PM 29.7137 33.6942 282° West  Level Estimated
Thu 08:32:00 PM 29.7367 33.5713 282° West  Level Estimated
Thu 08:33:00 PM 29.7596 33.4484 282° West  Level Estimated
Thu 08:34:00 PM 29.7824 33.3254 282° West  Level Estimated
Thu 08:35:00 PM 29.8050 33.2024 282° West  Level Estimated
Thu 08:36:00 PM 29.8276 33.0793 282° West  Level Estimated
Thu 08:37:00 PM 29.8500 32.9561 282° West  Level Estimated
Thu 08:38:00 PM 29.8723 32.8329 282° West  Level Estimated
Thu 08:39:00 PM 29.8946 32.7097 282° West  Level Estimated
Thu 08:40:00 PM 29.9167 32.5863 282° West  Level Estimated
Thu 08:41:00 PM 29.9386 32.4630 282° West  Level Estimated
Thu 08:42:00 PM 29.9605 32.3396 282° West  Level Estimated
Thu 08:43:00 PM 29.9823 32.2161 282° West  Level Estimated
Thu 08:44:00 PM 30.0039 32.0925 281° West  Level Estimated
Thu 08:45:00 PM 30.0254 31.9690 281° West  Level Estimated
Thu 08:46:00 PM 30.0468 31.8453 281° West  Level Estimated
Thu 08:47:00 PM 30.0681 31.7216 281° West  Level Estimated
Thu 08:48:00 PM 30.0893 31.5979 281° West  Level Estimated
Thu 08:49:00 PM 30.1103 31.4741 281° West  Level Estimated
Thu 08:50:00 PM 30.1219 31.4056 281° West  Level Estimated
Thu 08:51:00 PM 30.1219 31.4056 319° Northwest  Level Estimated
Thu 08:52:00 PM 30.1219 31.4056 319° Northwest  Level Estimated
Thu 08:53:00 PM 30.1219 31.4056 319° Northwest  Level Estimated
Thu 08:54:00 PM 30.1219 31.4056 319° Northwest  Level Estimated
Thu 08:55:00 PM 30.1219 31.4056 319° Northwest  Level Estimated
Thu 08:56:00 PM 30.1219 31.4056 319° Northwest  Level Estimated
Thu 08:57:00 PM 30.1219 31.4056 319° Northwest  Level Estimated
Thu 08:58:00 PM 30.1219 31.4056 319° Northwest  Level Estimated
Thu 08:59:00 PM 30.1219 31.4056 319° Northwest  Level Estimated
Thu 09:00:00 PM 30.1219 31.4056 319° Northwest  Level Estimated
Thu 09:01:00 PM 30.1219 31.4056 319° Northwest  Level Estimated
Thu 09:02:00 PM 30.1219 31.4056 319° Northwest  Level Estimated
Thu 09:03:00 PM 30.1219 31.4056 319° Northwest  Level Estimated
Thu 09:04:00 PM 30.1219 31.4056 319° Northwest  Level Estimated
Thu 09:05:00 PM 30.1219 31.4056 319° Northwest  Level Estimated
Thu 09:06:00 PM 30.1219 31.4056 319° Northwest  Level Estimated
Thu 09:07:00 PM 30.1219 31.4056 319° Northwest  Level Estimated
Thu 09:08:00 PM 30.1219 31.4056 319° Northwest  Level Estimated
Thu 09:09:00 PM 30.1219 31.4056 319° Northwest  Level Estimated
Thu 09:10:00 PM 30.1219 31.4056 319° Northwest  Level Estimated
Thu 09:11:00 PM 30.1219 31.4056 319° Northwest  Level Estimated
Thu 09:12:00 PM 30.1219 31.4056 319° Northwest  Level Estimated
Thu 09:13:00 PM 30.1219 31.4056 319° Northwest  Level Estimated
Thu 09:14:00 PM 30.1219 31.4056 319° Northwest  Level Estimated
Thu 09:15:00 PM 30.1219 31.4056 319° Northwest  Level Estimated
Thu 09:16:00 PM 30.1219 31.4056 319° Northwest  Level Estimated
Thu 09:17:00 PM 30.1219 31.4056 319° Northwest  Level Estimated
Thu 09:18:00 PM 30.1219 31.4056 319° Northwest  Level Estimated
Thu 09:19:00 PM 30.1219 31.4056 319° Northwest  Level Estimated
Thu 09:20:00 PM 30.1219 31.4056 319° Northwest  Level Estimated
Thu 09:21:00 PM 30.1219 31.4056 319° Northwest  Level Estimated
Thu 09:22:00 PM 30.1219 31.4056 319° Northwest  Level Estimated
Thu 09:23:00 PM 30.1219 31.4056 319° Northwest  Level Estimated
Thu 09:24:00 PM 30.1219 31.4056 319° Northwest  Level Estimated
Thu 09:25:00 PM 30.1219 31.4056 319° Northwest  Level Estimated
Thu 09:26:00 PM 30.1219 31.4056 319° Northwest  Level Estimated
Thu 09:27:00 PM 30.1219 31.4056 319° Northwest  Level Estimated
Thu 09:28:00 PM 30.1219 31.4056 319° Northwest  Level Estimated
Thu 09:29:00 PM 30.1219 31.4056 319° Northwest  Level Estimated
Thu 09:30:00 PM 30.1219 31.4056 319° Northwest  Level Estimated
Thu 09:31:00 PM 30.1219 31.4056 319° Northwest  Level Estimated
Thu 09:32:00 PM 30.1219 31.4056 319° Northwest  Level Estimated
Thu 09:33:00 PM 30.1219 31.4056 319° Northwest  Level Estimated
Thu 09:34:00 PM 30.1219 31.4056 319° Northwest  Level Estimated
Thu 09:35:00 PM 30.1219 31.4056 319° Northwest  Level Estimated
Thu 09:36:00 PM 30.1219 31.4056 319° Northwest  Level Estimated
Thu 09:37:00 PM 30.1219 31.4056 319° Northwest  Level Estimated
Thu 09:38:00 PM 30.1219 31.4056 319° Northwest  Level Estimated
Thu 09:39:00 PM 30.1219 31.4056 319° Northwest  Level Estimated
Thu 09:40:00 PM 30.1219 31.4056 319° Northwest  Level Estimated
Thu 09:41:00 PM 30.1219 31.4056 319° Northwest  Level Estimated
Thu 09:42:00 PM 30.1219 31.4056 319° Northwest  Level Estimated
Thu 09:43:00 PM 30.1219 31.4056 319° Northwest  Level Estimated
Thu 09:44:00 PM 30.1219 31.4056 319° Northwest  Level Estimated
Thu 09:45:00 PM 30.1219 31.4056 319° Northwest  Level Estimated
Thu 09:46:00 PM 30.1219 31.4056 319° Northwest  Level Estimated
Thu 09:47:00 PM 30.1219 31.4056 319° Northwest  Level Estimated
Thu 09:48:00 PM 30.1219 31.4056 319° Northwest  Level Estimated
Thu 09:49:00 PM 30.1219 31.4056 319° Northwest  Level Estimated
Thu 09:50:00 PM 30.1219 31.4056 319° Northwest  Level Estimated
Thu 09:51:00 PM 30.1219 31.4056 319° Northwest  Level Estimated
Thu 09:52:00 PM 30.1219 31.4056 319° Northwest  Level Estimated
Thu 09:53:00 PM 30.1219 31.4056 319° Northwest  Level Estimated
Thu 09:54:00 PM 30.1219 31.4056 319° Northwest  Level Estimated
Thu 09:55:00 PM 30.1219 31.4056 319° Northwest  Level Estimated
Thu 09:56:00 PM 30.1219 31.4056 319° Northwest  Level Estimated
Thu 09:57:00 PM 30.1219 31.4056 319° Northwest  Level Estimated
Thu 09:58:00 PM 30.1219 31.4056 319° Northwest  Level Estimated
Thu 09:59:00 PM 30.1219 31.4056 319° Northwest  Level Estimated
Thu 10:00:00 PM 30.1219 31.4056 319° Northwest  Level Estimated
Thu 10:01:00 PM 30.1219 31.4056 319° Northwest  Level Estimated
Thu 10:02:00 PM 30.1219 31.4056 319° Northwest  Level Estimated
Thu 10:03:00 PM 30.1219 31.4056 319° Northwest  Level Estimated
Thu 10:04:00 PM 30.1219 31.4056 319° Northwest  Level Estimated
Thu 10:05:00 PM 30.1219 31.4056 319° Northwest  Level Estimated
Thu 10:06:00 PM 30.1219 31.4056 319° Northwest  Level Estimated
Thu 10:07:00 PM 30.1219 31.4056 319° Northwest  Level Estimated
Thu 10:08:00 PM 30.1219 31.4056 319° Northwest  Level Estimated
Thu 10:09:00 PM 30.1219 31.4056 319° Northwest  Level Estimated
Thu 10:10:00 PM 30.1219 31.4056 319° Northwest  Level Estimated
Thu 10:11:00 PM 30.1219 31.4056 319° Northwest  Level Estimated
Thu 10:12:00 PM 30.1219 31.4056 319° Northwest  Level Estimated
Thu 10:13:00 PM 30.1219 31.4056 319° Northwest  Level Estimated
Thu 10:14:00 PM 30.1219 31.4056 319° Northwest  Level Estimated
Thu 10:15:00 PM 30.1219 31.4056 319° Northwest  Level Estimated
Thu 10:16:00 PM 30.1219 31.4056 319° Northwest  Level Estimated
Thu 10:17:00 PM 30.1219 31.4056 319° Northwest  Level Estimated
Thu 10:18:00 PM 30.1219 31.4056 319° Northwest  Level Estimated
Thu 10:19:00 PM 30.1219 31.4056 319° Northwest  Level Estimated
Thu 10:20:00 PM 30.1219 31.4056 319° Northwest  Level Estimated
Thu 10:21:00 PM 30.1219 31.4056 319° Northwest  Level Estimated
Thu 10:22:00 PM 30.1219 31.4056 319° Northwest  Level Estimated
Thu 10:23:00 PM 30.1219 31.4056 319° Northwest  Level Estimated
Thu 10:24:00 PM 30.1219 31.4056 319° Northwest  Level Estimated
Thu 10:25:00 PM 30.1219 31.4056 319° Northwest  Level Estimated
Thu 10:26:00 PM 30.1219 31.4056 319° Northwest  Level Estimated
Thu 10:27:00 PM 30.1219 31.4056 319° Northwest  Level Estimated
Thu 10:28:00 PM 30.1219 31.4056 319° Northwest  Level Estimated
Thu 10:29:00 PM 30.1219 31.4056 319° Northwest  Level Estimated
Thu 10:30:00 PM 30.1219 31.4056 319° Northwest  Level Estimated
Thu 10:31:00 PM 30.1219 31.4056 319° Northwest  Level Estimated
Thu 10:32:00 PM 30.1219 31.4056 319° Northwest  Level Estimated
Thu 10:33:00 PM 30.1219 31.4056 319° Northwest  Level Estimated
Thu 10:34:00 PM 30.1219 31.4056 319° Northwest  Level Estimated
Thu 10:35:00 PM 30.1219 31.4056 319° Northwest  Level Estimated
Thu 10:36:00 PM 30.1219 31.4056 319° Northwest  Level Estimated
Thu 10:37:00 PM 30.1219 31.4056 319° Northwest  Level Estimated
Thu 10:38:00 PM 30.1219 31.4056 319° Northwest  Level Estimated
Thu 10:39:00 PM 30.1219 31.4056 319° Northwest  Level Estimated
Thu 10:40:00 PM 30.1219 31.4056 319° Northwest  Level Estimated
Thu 10:41:00 PM 30.1219 31.4056 319° Northwest  Level Estimated
Thu 10:42:00 PM 30.1219 31.4056 319° Northwest  Level Estimated
Thu 10:43:00 PM 30.1219 31.4056 319° Northwest  Level Estimated
Thu 10:44:00 PM 30.1219 31.4056 319° Northwest  Level Estimated
Thu 10:45:00 PM 30.1219 31.4056 319° Northwest  Level Estimated
Thu 10:46:00 PM 30.1219 31.4056 319° Northwest  Level Estimated
Thu 10:47:00 PM 30.1219 31.4056 319° Northwest  Level Estimated
Thu 10:48:00 PM 30.1219 31.4056 319° Northwest  Level Estimated
Thu 10:49:00 PM 30.1219 31.4056 319° Northwest  Level Estimated
Thu 10:50:00 PM 30.1219 31.4056 319° Northwest  Level Estimated
Thu 10:51:00 PM 30.1219 31.4056 319° Northwest  Level Estimated
Thu 10:52:00 PM 30.1219 31.4056 319° Northwest  Level Estimated
Thu 10:53:00 PM 30.1219 31.4056 319° Northwest  Level Estimated
Thu 10:54:00 PM 30.1219 31.4056 319° Northwest  Level Estimated
Thu 10:55:00 PM 30.1219 31.4056 319° Northwest  Level Estimated
Thu 10:56:00 PM 30.1219 31.4056 319° Northwest  Level Estimated
Thu 10:57:00 PM 30.1219 31.4056 319° Northwest  Level Estimated
Thu 10:58:00 PM 30.1219 31.4056 319° Northwest  Level Estimated
Thu 10:59:00 PM 30.1219 31.4056 319° Northwest  Level Estimated
Thu 11:00:00 PM 30.1219 31.4056 319° Northwest  Level Estimated
Thu 11:01:00 PM 30.1219 31.4056 319° Northwest  Level Estimated
Thu 11:02:00 PM 30.1219 31.4056 319° Northwest  Level Estimated
Thu 11:03:00 PM 30.1219 31.4056 319° Northwest  Level Estimated
Thu 11:04:00 PM 30.1219 31.4056 319° Northwest  Level Estimated
Thu 11:05:00 PM 30.1219 31.4056 319° Northwest  Level Estimated
Thu 11:06:00 PM 30.1219 31.4056 319° Northwest  Level Estimated
Thu 11:07:00 PM 30.1219 31.4056 319° Northwest  Level Estimated
Thu 11:08:00 PM 30.1219 31.4056 319° Northwest  Level Estimated
Thu 11:09:00 PM 30.1219 31.4056 319° Northwest  Level Estimated
Thu 11:10:00 PM 30.1219 31.4056 319° Northwest  Level Estimated
Thu 11:11:00 PM 30.1219 31.4056 319° Northwest  Level Estimated
Thu 11:12:00 PM 30.1219 31.4056 319° Northwest  Level Estimated
Thu 11:13:00 PM 30.1219 31.4056 319° Northwest  Level Estimated
Thu 11:14:00 PM 30.1219 31.4056 319° Northwest  Level Estimated
Thu 11:15:00 PM 30.1219 31.4056 319° Northwest  Level Estimated
Thu 11:16:00 PM 30.1219 31.4056 319° Northwest  Level Estimated
Thu 11:17:00 PM 30.1219 31.4056 319° Northwest  Level Estimated
Thu 11:18:00 PM 30.1219 31.4056 319° Northwest  Level Estimated
Thu 11:19:00 PM 30.1219 31.4056 319° Northwest  Level Estimated
Thu 11:20:00 PM 30.1219 31.4056 319° Northwest  Level Estimated
Thu 11:21:00 PM 30.1219 31.4056 319° Northwest  Level Estimated
Thu 11:22:00 PM 30.1219 31.4056 319° Northwest  Level Estimated
Thu 11:23:00 PM 30.1219 31.4056 319° Northwest  Level Estimated
Thu 11:24:00 PM 30.1219 31.4056 319° Northwest  Level Estimated
Thu 11:25:00 PM 30.1219 31.4056 319° Northwest  Level Estimated
Thu 11:26:00 PM 30.1219 31.4056 319° Northwest  Level Estimated
Thu 11:27:00 PM 30.1219 31.4056 319° Northwest  Level Estimated
Thu 11:28:00 PM 30.1219 31.4056 319° Northwest  Level Estimated
Thu 11:29:00 PM 30.1219 31.4056 319° Northwest  Level Estimated
Thu 11:30:00 PM 30.1219 31.4056 319° Northwest  Level Estimated
Thu 11:31:00 PM 30.1219 31.4056 319° Northwest  Level Estimated
Thu 11:32:00 PM 30.1219 31.4056 319° Northwest  Level Estimated
Thu 11:33:00 PM 30.1219 31.4056 319° Northwest  Level Estimated
Thu 11:34:00 PM 30.1219 31.4056 319° Northwest  Level Estimated
Thu 11:35:00 PM 30.1219 31.4056 319° Northwest  Level Estimated
Thu 11:36:00 PM 30.1219 31.4056 319° Northwest  Level Estimated
Thu 11:37:00 PM 30.1219 31.4056 319° Northwest  Level Estimated
Thu 11:38:00 PM 30.1219 31.4056 319° Northwest  Level Estimated
Thu 11:39:00 PM 30.1219 31.4056 319° Northwest  Level Estimated
Thu 11:40:00 PM 30.1219 31.4056 319° Northwest  Level Estimated
Thu 11:41:00 PM 30.1219 31.4056 319° Northwest  Level Estimated
Thu 11:42:00 PM 30.1219 31.4056 319° Northwest  Level Estimated
Thu 11:43:00 PM 30.1219 31.4056 319° Northwest  Level Estimated
Thu 11:44:00 PM 30.1219 31.4056 319° Northwest  Level Estimated
Thu 11:45:00 PM 30.1219 31.4056 319° Northwest  Level Estimated
Thu 11:46:00 PM 30.1219 31.4056 319° Northwest  Level Estimated
Thu 11:47:00 PM 30.1219 31.4056 319° Northwest  Level Estimated
Thu 11:48:00 PM 30.1219 31.4056 319° Northwest  Level Estimated
Thu 11:49:00 PM 30.1219 31.4056 319° Northwest  Level Estimated
Thu 11:50:00 PM 30.1219 31.4056 319° Northwest  Level Estimated
Thu 11:51:00 PM 30.1219 31.4056 319° Northwest  Level Estimated
Thu 11:52:00 PM 30.1219 31.4056 319° Northwest  Level Estimated
Thu 11:53:00 PM 30.1219 31.4056 319° Northwest  Level Estimated
Thu 11:54:00 PM 30.1219 31.4056 319° Northwest  Level Estimated
Thu 11:55:00 PM 30.1219 31.4056 319° Northwest  Level Estimated
Thu 11:56:00 PM 30.1219 31.4056 319° Northwest  Level Estimated
Thu 11:57:00 PM 30.1219 31.4056 319° Northwest  Level Estimated
Thu 11:58:00 PM 30.1219 31.4056 319° Northwest  Level Estimated
Thu 11:59:00 PM 30.1219 31.4056 319° Northwest  Level Estimated
Fri 12:01:58 AM 30.1219 31.4056 319° Northwest  Level Estimated
Fri 12:01:59 AM 30.1219 31.4056 319° Northwest  Level Estimated
Fri 12:03:00 AM 30.1219 31.4056 319° Northwest  Level Estimated
Fri 12:03:00 AM 30.1219 31.4056 319° Northwest  Level Estimated
Fri 12:04:00 AM 30.1219 31.4056 319° Northwest  Level Estimated
Fri 12:04:00 AM 30.1219 31.4056 319° Northwest  Level Estimated
Fri 12:05:00 AM 30.1219 31.4056 319° Northwest  Level Estimated
Fri 12:06:00 AM 30.1219 31.4056 319° Northwest  Level Estimated
Fri 12:07:00 AM 30.1219 31.4056 319° Northwest  Level Estimated
Fri 12:08:00 AM 30.1219 31.4056 319° Northwest  Level Estimated
Fri 12:09:00 AM 30.1219 31.4056 319° Northwest  Level Estimated
Fri 12:10:00 AM 30.1219 31.4056 319° Northwest  Level Estimated
Fri 12:11:00 AM 30.1219 31.4056 319° Northwest  Level Estimated
Fri 12:12:00 AM 30.1219 31.4056 319° Northwest  Level Estimated
Fri 12:13:00 AM 30.1219 31.4056 319° Northwest  Level Estimated
Fri 12:14:00 AM 30.1219 31.4056 319° Northwest  Level Estimated
Fri 12:15:00 AM 30.1219 31.4056 319° Northwest  Level Estimated
Fri 12:16:00 AM 30.1219 31.4056 319° Northwest  Level Estimated
Fri 12:17:00 AM 30.1219 31.4056 319° Northwest  Level Estimated
Fri 12:18:00 AM 30.1219 31.4056 319° Northwest  Level Estimated
Fri 12:19:00 AM 30.1219 31.4056 319° Northwest  Level Estimated
Fri 12:20:00 AM 30.1219 31.4056 319° Northwest  Level Estimated
Fri 12:21:00 AM 30.1219 31.4056 319° Northwest  Level Estimated
Fri 12:22:00 AM 30.1219 31.4056 319° Northwest  Level Estimated
Fri 12:23:00 AM 30.1219 31.4056 319° Northwest  Level Estimated
Fri 12:24:00 AM 30.1219 31.4056 319° Northwest  Level Estimated
Fri 12:25:00 AM 30.1219 31.4056 319° Northwest  Level Estimated
Fri 12:26:00 AM 30.1219 31.4056 319° Northwest  Level Estimated
Fri 12:27:00 AM 30.1219 31.4056 319° Northwest  Level Estimated
Fri 12:28:00 AM 30.1219 31.4056 319° Northwest  Level Estimated
Fri 12:29:00 AM 30.1219 31.4056 319° Northwest  Level Estimated
Fri 12:30:00 AM 30.1219 31.4056 319° Northwest  Level Estimated
Fri 12:31:00 AM 30.1219 31.4056 319° Northwest  Level Estimated
Fri 12:32:00 AM 30.1219 31.4056 319° Northwest  Level Estimated
Fri 12:33:00 AM 30.1219 31.4056 319° Northwest  Level Estimated
Fri 12:34:00 AM 30.1219 31.4056 319° Northwest  Level Estimated
Fri 12:35:00 AM 30.1219 31.4056 319° Northwest  Level Estimated
Fri 12:36:00 AM 30.1219 31.4056 319° Northwest  Level Estimated
Fri 12:37:00 AM 30.1219 31.4056 319° Northwest  Level Estimated
Fri 12:38:00 AM 30.1219 31.4056 319° Northwest  Level Estimated
Fri 12:39:00 AM 30.1219 31.4056 319° Northwest  Level Estimated
Fri 12:40:00 AM 30.1219 31.4056 319° Northwest  Level Estimated
Fri 12:41:00 AM 30.1219 31.4056 319° Northwest  Level Estimated
Fri 12:42:00 AM 30.1219 31.4056 319° Northwest  Level Estimated
Fri 12:43:00 AM 30.1219 31.4056 319° Northwest  Level Estimated
Fri 12:44:00 AM 30.1219 31.4056 319° Northwest  Level Estimated
Fri 12:45:00 AM 30.1219 31.4056 319° Northwest  Level Estimated
Fri 12:46:00 AM 30.1219 31.4056 319° Northwest  Level Estimated
Fri 12:47:00 AM 30.1219 31.4056 319° Northwest  Level Estimated
Fri 12:48:00 AM 30.1219 31.4056 319° Northwest  Level Estimated
Fri 12:49:00 AM 30.1219 31.4056 319° Northwest  Level Estimated
Fri 12:50:00 AM 30.1219 31.4056 319° Northwest  Level Estimated
Fri 12:51:00 AM 30.1219 31.4056 319° Northwest  Level Estimated
Fri 12:52:00 AM 30.1219 31.4056 319° Northwest  Level Estimated
Fri 12:53:00 AM 30.1219 31.4056 319° Northwest  Level Estimated
Fri 12:54:00 AM 30.1219 31.4056 319° Northwest  Level Estimated
Fri 12:55:00 AM 30.1219 31.4056 319° Northwest  Level Estimated
Fri 12:56:00 AM 30.1219 31.4056 319° Northwest  Level Estimated
Fri 12:57:00 AM 30.1219 31.4056 319° Northwest  Level Estimated
Fri 12:58:00 AM 30.1219 31.4056 319° Northwest  Level Estimated
Fri 12:59:00 AM 30.1219 31.4056 319° Northwest  Level Estimated
Fri 01:00:00 AM 30.1219 31.4056 319° Northwest  Level Estimated
Fri 01:01:00 AM 30.1219 31.4056 319° Northwest  Level Estimated
Fri 01:02:00 AM 30.1219 31.4056 319° Northwest  Level Estimated
Fri 01:03:00 AM 30.1219 31.4056 319° Northwest  Level Estimated
Fri 01:04:00 AM 30.1219 31.4056 319° Northwest  Level Estimated
Fri 01:05:00 AM 30.1219 31.4056 319° Northwest  Level Estimated
Fri 01:06:00 AM 30.1219 31.4056 319° Northwest  Level Estimated
Fri 01:07:00 AM 30.1219 31.4056 319° Northwest  Level Estimated
Fri 01:08:00 AM 30.1219 31.4056 319° Northwest  Level Estimated
Fri 01:09:00 AM 30.1219 31.4056 319° Northwest  Level Estimated
Fri 01:10:00 AM 30.1219 31.4056 319° Northwest  Level Estimated
Fri 01:11:00 AM 30.1219 31.4056 319° Northwest  Level Estimated
Fri 01:12:00 AM 30.1219 31.4056 319° Northwest  Level Estimated
Fri 01:13:00 AM 30.1219 31.4056 319° Northwest  Level Estimated
Fri 01:14:00 AM 30.1219 31.4056 319° Northwest  Level Estimated
Fri 01:15:00 AM 30.1219 31.4056 319° Northwest  Level Estimated
Fri 01:16:00 AM 30.1219 31.4056 319° Northwest  Level Estimated
Fri 01:17:00 AM 30.1219 31.4056 319° Northwest  Level Estimated
Fri 01:18:00 AM 30.1219 31.4056 319° Northwest  Level Estimated
Fri 01:19:00 AM 30.1219 31.4056 319° Northwest  Level Estimated
Fri 01:20:00 AM 30.1219 31.4056 319° Northwest  Level Estimated
Fri 01:21:00 AM 30.1219 31.4056 319° Northwest  Level Estimated
Fri 01:22:00 AM 30.1219 31.4056 319° Northwest  Level Estimated
Fri 01:23:00 AM 30.1219 31.4056 319° Northwest  Level Estimated
Fri 01:24:00 AM 30.1219 31.4056 319° Northwest  Level Estimated
Fri 01:25:00 AM 30.1219 31.4056 319° Northwest  Level Estimated
Fri 01:26:00 AM 30.1219 31.4056 319° Northwest  Level Estimated
Fri 01:27:00 AM 30.1219 31.4056 319° Northwest  Level Estimated
Fri 01:28:00 AM 30.1219 31.4056 319° Northwest  Level Estimated
Fri 01:29:00 AM 30.1219 31.4056 319° Northwest  Level Estimated
Fri 01:30:00 AM 30.1219 31.4056 319° Northwest  Level Estimated
Fri 01:31:00 AM 30.1219 31.4056 319° Northwest  Level Estimated
Fri 01:32:00 AM 30.1219 31.4056 319° Northwest  Level Estimated
Fri 01:33:00 AM 30.1219 31.4056 319° Northwest  Level Estimated
Fri 01:34:00 AM 30.1219 31.4056 319° Northwest  Level Estimated
Fri 01:35:00 AM 30.1219 31.4056 319° Northwest  Level Estimated
Fri 01:36:00 AM 30.1219 31.4056 319° Northwest  Level Estimated
Fri 01:37:00 AM 30.1219 31.4056 319° Northwest  Level Estimated
Fri 01:38:00 AM 30.1219 31.4056 319° Northwest  Level Estimated
Fri 01:39:00 AM 30.1219 31.4056 319° Northwest  Level Estimated
Fri 01:40:00 AM 30.1219 31.4056 319° Northwest  Level Estimated
Fri 01:41:00 AM 30.1219 31.4056 319° Northwest  Level Estimated
Fri 01:42:00 AM 30.1219 31.4056 319° Northwest  Level Estimated
Fri 01:43:00 AM 30.1219 31.4056 319° Northwest  Level Estimated
Fri 01:44:00 AM 30.1219 31.4056 319° Northwest  Level Estimated
Fri 01:45:00 AM 30.1219 31.4056 319° Northwest  Level Estimated
Fri 01:46:00 AM 30.1219 31.4056 319° Northwest  Level Estimated
Fri 01:47:00 AM 30.1219 31.4056 319° Northwest  Level Estimated
Fri 01:48:00 AM 30.1219 31.4056 319° Northwest  Level Estimated
Fri 01:49:00 AM 30.1219 31.4056 319° Northwest  Level Estimated
Fri 01:50:00 AM 30.1219 31.4056 319° Northwest  Level Estimated
Fri 01:51:00 AM 30.1219 31.4056 319° Northwest  Level Estimated
Fri 01:52:00 AM 30.1219 31.4056 319° Northwest  Level Estimated
Fri 01:53:00 AM 30.1219 31.4056 319° Northwest  Level Estimated
Fri 01:54:00 AM 30.1219 31.4056 319° Northwest  Level Estimated
Fri 01:55:00 AM 30.1219 31.4056 319° Northwest  Level Estimated
Fri 01:56:00 AM 30.1219 31.4056 319° Northwest  Level Estimated
Fri 01:57:00 AM 30.1219 31.4056 319° Northwest  Level Estimated
Fri 01:58:00 AM 30.1219 31.4056 319° Northwest  Level Estimated
Fri 01:59:00 AM 30.1219 31.4056 319° Northwest  Level Estimated
Fri 02:00:00 AM 30.1219 31.4056 319° Northwest  Level Estimated
Fri 02:01:00 AM 30.1219 31.4056 319° Northwest  Level Estimated
Fri 02:02:00 AM 30.1219 31.4056 319° Northwest  Level Estimated
Fri 02:03:00 AM 30.1219 31.4056 319° Northwest  Level Estimated
Fri 02:04:00 AM 30.1219 31.4056 319° Northwest  Level Estimated
Fri 02:05:00 AM 30.1219 31.4056 319° Northwest  Level Estimated
Fri 02:06:00 AM 30.1219 31.4056 319° Northwest  Level Estimated
Fri 02:07:00 AM 30.1219 31.4056 319° Northwest  Level Estimated
Fri 02:08:00 AM 30.1219 31.4056 319° Northwest  Level Estimated
Fri 02:09:00 AM 30.1219 31.4056 319° Northwest  Level Estimated
Fri 02:10:00 AM 30.1219 31.4056 319° Northwest  Level Estimated
Fri 02:11:00 AM 30.1219 31.4056 319° Northwest  Level Estimated
Fri 02:12:00 AM 30.1219 31.4056 319° Northwest  Level Estimated
Fri 02:13:00 AM 30.1219 31.4056 319° Northwest  Level Estimated
Fri 02:14:00 AM 30.1219 31.4056 319° Northwest  Level Estimated
Fri 02:15:00 AM 30.1219 31.4056 319° Northwest  Level Estimated
Fri 02:16:00 AM 30.1219 31.4056 319° Northwest  Level Estimated
Fri 02:17:00 AM 30.1219 31.4056 319° Northwest  Level Estimated
Fri 02:18:00 AM 30.1219 31.4056 319° Northwest  Level Estimated
Fri 02:19:00 AM 30.1219 31.4056 319° Northwest  Level Estimated
Fri 02:20:00 AM 30.1219 31.4056 319° Northwest  Level Estimated
Fri 02:21:00 AM 30.1219 31.4056 319° Northwest  Level Estimated
Fri 02:22:00 AM 30.1219 31.4056 319° Northwest  Level Estimated
Fri 02:23:00 AM 30.1219 31.4056 319° Northwest  Level Estimated
Fri 02:24:00 AM 30.1219 31.4056 319° Northwest  Level Estimated
Fri 02:25:00 AM 30.1219 31.4056 319° Northwest  Level Estimated
Fri 02:26:00 AM 30.1219 31.4056 319° Northwest  Level Estimated
Fri 02:27:00 AM 30.1219 31.4056 319° Northwest  Level Estimated
Fri 02:28:00 AM 30.1219 31.4056 319° Northwest  Level Estimated
Fri 02:29:00 AM 30.1219 31.4056 319° Northwest  Level Estimated
Fri 02:30:00 AM 30.1219 31.4056 319° Northwest  Level Estimated
Fri 02:31:00 AM 30.1219 31.4056 319° Northwest  Level Estimated
Fri 02:32:00 AM 30.1219 31.4056 319° Northwest  Level Estimated
Fri 02:33:00 AM 30.1219 31.4056 319° Northwest  Level Estimated
Fri 02:34:00 AM 30.1219 31.4056 319° Northwest  Level Estimated
Fri 02:35:00 AM 30.1219 31.4056 319° Northwest  Level Estimated
Fri 02:36:00 AM 30.1219 31.4056 319° Northwest  Level Estimated
Fri 02:37:00 AM 30.1219 31.4056 319° Northwest  Level Estimated
Fri 02:38:00 AM 30.1219 31.4056 319° Northwest  Level Estimated
Fri 02:39:00 AM 30.1219 31.4056 319° Northwest  Level Estimated
Fri 02:40:00 AM 30.1219 31.4056 319° Northwest  Level Estimated
Fri 02:41:00 AM 30.1219 31.4056 319° Northwest  Level Estimated
Fri 02:42:00 AM 30.1219 31.4056 319° Northwest  Level Estimated
Fri 02:43:00 AM 30.1219 31.4056 319° Northwest  Level Estimated
Fri 02:44:00 AM 30.1219 31.4056 319° Northwest  Level Estimated
Fri 02:45:00 AM 30.1219 31.4056 319° Northwest  Level Estimated
Fri 02:46:00 AM 30.1219 31.4056 319° Northwest  Level Estimated
Fri 02:47:00 AM 30.1219 31.4056 319° Northwest  Level Estimated
Fri 02:48:00 AM 30.1219 31.4056 319° Northwest  Level Estimated
Fri 02:49:00 AM 30.1219 31.4056 319° Northwest  Level Estimated
Fri 02:50:00 AM 30.1219 31.4056 319° Northwest  Level Estimated
Fri 02:51:00 AM 30.1219 31.4056 319° Northwest  Level Estimated
Fri 02:52:00 AM 30.1219 31.4056 319° Northwest  Level Estimated
Fri 02:53:00 AM 30.1219 31.4056 319° Northwest  Level Estimated
Fri 02:54:00 AM 30.1219 31.4056 319° Northwest  Level Estimated
Fri 02:55:00 AM 30.1219 31.4056 319° Northwest  Level Estimated
Fri 02:56:00 AM 30.1219 31.4056 319° Northwest  Level Estimated
Fri 02:57:00 AM 30.1219 31.4056 319° Northwest  Level Estimated
Fri 02:58:00 AM 30.1219 31.4056 319° Northwest  Level Estimated
Fri 02:59:00 AM 30.1219 31.4056 319° Northwest  Level Estimated
Fri 03:00:00 AM 30.1219 31.4056 319° Northwest  Level Estimated
Fri 03:01:00 AM 30.1219 31.4056 319° Northwest  Level Estimated
Fri 03:02:00 AM 30.1219 31.4056 319° Northwest  Level Estimated
Fri 03:03:00 AM 30.1219 31.4056 319° Northwest  Level Estimated
Fri 03:04:00 AM 30.1219 31.4056 319° Northwest  Level Estimated
Fri 03:05:00 AM 30.1219 31.4056 319° Northwest  Level Estimated
Fri 03:06:00 AM 30.1219 31.4056 319° Northwest  Level Estimated
Fri 03:07:00 AM 30.1219 31.4056 319° Northwest  Level Estimated
Fri 03:08:00 AM 30.1219 31.4056 319° Northwest  Level Estimated
Fri 03:09:00 AM 30.1219 31.4056 319° Northwest  Level Estimated
Fri 03:10:00 AM 30.1219 31.4056 319° Northwest  Level Estimated
Fri 03:11:00 AM 30.1219 31.4056 319° Northwest  Level Estimated
Fri 03:12:00 AM 30.1219 31.4056 319° Northwest  Level Estimated
Fri 03:13:00 AM 30.1219 31.4056 319° Northwest  Level Estimated
Fri 03:14:00 AM 30.1219 31.4056 319° Northwest  Level Estimated
Fri 03:15:00 AM 30.1219 31.4056 319° Northwest  Level Estimated
Fri 03:16:00 AM 30.1219 31.4056 319° Northwest  Level Estimated
Fri 03:17:00 AM 30.1219 31.4056 319° Northwest  Level Estimated
Fri 03:18:00 AM 30.1219 31.4056 319° Northwest  Level Estimated
Fri 03:19:00 AM 30.1219 31.4056 319° Northwest  Level Estimated
Fri 03:20:00 AM 30.1219 31.4056 319° Northwest  Level Estimated
Fri 03:21:00 AM 30.1219 31.4056 319° Northwest  Level Estimated
Fri 03:22:00 AM 30.1219 31.4056 319° Northwest  Level Estimated
Fri 03:23:00 AM 30.1219 31.4056 319° Northwest  Level Estimated
Fri 03:24:00 AM 30.1219 31.4056 319° Northwest  Level Estimated
Fri 03:25:00 AM 30.1219 31.4056 319° Northwest  Level Estimated
Fri 03:26:00 AM 30.1219 31.4056 319° Northwest  Level Estimated
Fri 03:27:00 AM 30.1219 31.4056 319° Northwest  Level Estimated
Fri 03:28:00 AM 30.1219 31.4056 319° Northwest  Level Estimated
Fri 03:29:00 AM 30.1219 31.4056 319° Northwest  Level Estimated
Fri 03:30:00 AM 30.1219 31.4056 319° Northwest  Level Estimated
Fri 03:31:00 AM 30.1219 31.4056 319° Northwest  Level Estimated
Fri 03:32:00 AM 30.1219 31.4056 319° Northwest  Level Estimated
Fri 03:33:00 AM 30.1219 31.4056 319° Northwest  Level Estimated
Fri 03:34:00 AM 30.1219 31.4056 319° Northwest  Level Estimated
Fri 03:35:00 AM 30.1219 31.4056 319° Northwest  Level Estimated
Fri 03:36:00 AM 30.1219 31.4056 319° Northwest  Level Estimated
Fri 03:37:00 AM 30.1219 31.4056 319° Northwest  Level Estimated
Fri 03:38:00 AM 30.1219 31.4056 319° Northwest  Level Estimated
Fri 03:39:00 AM 30.1219 31.4056 319° Northwest  Level Estimated
Fri 03:40:00 AM 30.1219 31.4056 319° Northwest  Level Estimated
Fri 03:41:00 AM 30.1219 31.4056 319° Northwest  Level Estimated
Fri 03:42:00 AM 30.1219 31.4056 319° Northwest  Level Estimated
Fri 03:43:00 AM 30.1219 31.4056 319° Northwest  Level Estimated
Fri 03:44:00 AM 30.1219 31.4056 319° Northwest  Level Estimated
Fri 03:45:00 AM 30.1219 31.4056 319° Northwest  Level Estimated
Fri 03:46:00 AM 30.1219 31.4056 319° Northwest  Level Estimated
Fri 03:47:00 AM 30.1219 31.4056 319° Northwest  Level Estimated
Fri 03:48:00 AM 30.1219 31.4056 319° Northwest  Level Estimated
Fri 03:49:00 AM 30.1219 31.4056 319° Northwest  Level Estimated
Fri 03:50:00 AM 30.1219 31.4056 319° Northwest  Level Estimated
Fri 03:51:00 AM 30.1219 31.4056 319° Northwest  Level Estimated
Fri 03:52:00 AM 30.1219 31.4056 319° Northwest  Level Estimated
Fri 03:53:00 AM 30.1219 31.4056 319° Northwest  Level Estimated
Fri 03:54:00 AM 30.1219 31.4056 319° Northwest  Level Estimated
Fri 03:55:00 AM 30.1219 31.4056 319° Northwest  Level Estimated
Fri 03:56:00 AM 30.1219 31.4056 319° Northwest  Level Estimated
Fri 03:57:00 AM 30.1219 31.4056 319° Northwest  Level Estimated
Fri 03:58:00 AM 30.1219 31.4056 319° Northwest  Level Estimated
Fri 03:59:00 AM 30.1219 31.4056 319° Northwest  Level Estimated
Fri 04:00:00 AM 30.1219 31.4056 319° Northwest  Level Estimated
Fri 04:01:00 AM 30.1219 31.4056 319° Northwest  Level Estimated
Fri 04:02:00 AM 30.1219 31.4056 319° Northwest  Level Estimated
Fri 04:03:00 AM 30.1219 31.4056 319° Northwest  Level Estimated
Fri 04:04:00 AM 30.1219 31.4056 319° Northwest  Level Estimated
Fri 04:05:00 AM 30.1219 31.4056 319° Northwest  Level Estimated
Fri 04:06:00 AM 30.1219 31.4056 319° Northwest  Level Estimated
Fri 04:07:00 AM 30.1219 31.4056 319° Northwest  Level Estimated
Fri 04:08:00 AM 30.1219 31.4056 319° Northwest  Level Estimated
Fri 04:09:00 AM 30.1219 31.4056 319° Northwest  Level Estimated
Fri 04:10:00 AM 30.1219 31.4056 319° Northwest  Level Estimated
Fri 04:11:00 AM 30.1219 31.4056 319° Northwest  Level Estimated
Fri 04:12:00 AM 30.1219 31.4056 319° Northwest  Level Estimated
Fri 04:13:00 AM 30.1219 31.4056 319° Northwest  Level Estimated
Fri 04:14:00 AM 30.1219 31.4056 319° Northwest  Level Estimated
Fri 04:15:00 AM 30.1219 31.4056 319° Northwest  Level Estimated
Fri 04:16:00 AM 30.1219 31.4056 319° Northwest  Level Estimated
Fri 04:17:00 AM 30.1219 31.4056 319° Northwest  Level Estimated
Fri 04:18:00 AM 30.1219 31.4056 319° Northwest  Level Estimated
Fri 04:19:00 AM 30.1219 31.4056 319° Northwest  Level Estimated
Fri 04:20:00 AM 30.1219 31.4056 319° Northwest  Level Estimated
Fri 04:21:00 AM 30.1219 31.4056 319° Northwest  Level Estimated
Fri 04:22:00 AM 30.1219 31.4056 319° Northwest  Level Estimated
Fri 04:23:00 AM 30.1219 31.4056 319° Northwest  Level Estimated
Fri 04:24:00 AM 30.1219 31.4056 319° Northwest  Level Estimated
Fri 04:25:00 AM 30.1219 31.4056 319° Northwest  Level Estimated
Fri 04:26:00 AM 30.1219 31.4056 319° Northwest  Level Estimated
Fri 04:27:00 AM 30.1219 31.4056 319° Northwest  Level Estimated
Fri 04:28:00 AM 30.1219 31.4056 319° Northwest  Level Estimated
Fri 04:29:00 AM 30.1219 31.4056 319° Northwest  Level Estimated
Fri 04:30:00 AM 30.1219 31.4056 319° Northwest  Level Estimated
Fri 04:31:00 AM 30.1219 31.4056 319° Northwest  Level Estimated
Fri 04:32:00 AM 30.1219 31.4056 319° Northwest  Level Estimated
Fri 04:33:00 AM 30.1219 31.4056 319° Northwest  Level Estimated
Fri 04:34:00 AM 30.1219 31.4056 319° Northwest  Level Estimated
Fri 04:35:00 AM 30.1219 31.4056 319° Northwest  Level Estimated
Fri 04:36:00 AM 30.1219 31.4056 319° Northwest  Level Estimated
Fri 04:37:00 AM 30.1219 31.4056 319° Northwest  Level Estimated
Fri 04:38:00 AM 30.1219 31.4056 319° Northwest  Level Estimated
Fri 04:39:00 AM 30.1219 31.4056 319° Northwest  Level Estimated
Fri 04:40:00 AM 30.1219 31.4056 319° Northwest  Level Estimated
Fri 04:41:00 AM 30.1219 31.4056 319° Northwest  Level Estimated
Fri 04:42:00 AM 30.1219 31.4056 319° Northwest  Level Estimated
Fri 04:43:00 AM 30.1219 31.4056 319° Northwest  Level Estimated
Fri 04:44:00 AM 30.1219 31.4056 319° Northwest  Level Estimated
Fri 04:45:00 AM 30.1219 31.4056 319° Northwest  Level Estimated
Fri 04:46:00 AM 30.1219 31.4056 319° Northwest  Level Estimated
Fri 04:47:00 AM 30.1219 31.4056 319° Northwest  Level Estimated
Fri 04:48:00 AM 30.1219 31.4056 319° Northwest  Level Estimated
Fri 04:49:00 AM 30.1219 31.4056 319° Northwest  Level Estimated
Fri 04:50:00 AM 30.1219 31.4056 319° Northwest  Level Estimated
Fri 04:51:00 AM 30.1219 31.4056 319° Northwest  Level Estimated
Fri 04:52:00 AM 30.1219 31.4056 319° Northwest  Level Estimated
Fri 04:53:00 AM 30.1219 31.4056 319° Northwest  Level Estimated
Fri 04:54:00 AM 30.1219 31.4056 319° Northwest  Level Estimated
Fri 04:55:00 AM 30.1219 31.4056 319° Northwest  Level Estimated
Fri 04:56:00 AM 30.1219 31.4056 319° Northwest  Level Estimated
Fri 04:57:00 AM 30.1219 31.4056 319° Northwest  Level Estimated
Fri 04:58:00 AM 30.1219 31.4056 319° Northwest  Level Estimated
Fri 04:59:00 AM 30.1219 31.4056 319° Northwest  Level Estimated
Fri 05:00:00 AM 30.1219 31.4056 319° Northwest  Level Estimated
Fri 05:01:00 AM 30.1219 31.4056 319° Northwest  Level Estimated
Fri 05:02:00 AM 30.1219 31.4056 319° Northwest  Level Estimated
Fri 05:03:00 AM 30.1219 31.4056 319° Northwest  Level Estimated
Fri 05:04:00 AM 30.1219 31.4056 319° Northwest  Level Estimated
Fri 05:05:00 AM 30.1219 31.4056 319° Northwest  Level Estimated
Fri 05:06:00 AM 30.1219 31.4056 319° Northwest  Level Estimated
Fri 05:07:00 AM 30.1219 31.4056 319° Northwest  Level Estimated
Fri 05:08:00 AM 30.1219 31.4056 319° Northwest  Level Estimated
Fri 05:09:00 AM 30.1219 31.4056 319° Northwest  Level Estimated
Fri 05:10:00 AM 30.1219 31.4056 319° Northwest  Level Estimated
Fri 05:11:00 AM 30.1219 31.4056 319° Northwest  Level Estimated
Fri 05:12:00 AM 30.1219 31.4056 319° Northwest  Level Estimated
Fri 05:13:00 AM 30.1219 31.4056 319° Northwest  Level Estimated
Fri 05:14:00 AM 30.1219 31.4056 319° Northwest  Level Estimated
Fri 05:15:00 AM 30.1219 31.4056 319° Northwest  Level Estimated
Fri 05:16:00 AM 30.1219 31.4056 319° Northwest  Level Estimated
Fri 05:17:00 AM 30.1219 31.4056 319° Northwest  Level Estimated
Fri 05:18:00 AM 30.1219 31.4056 319° Northwest  Level Estimated
Fri 05:19:00 AM 30.1219 31.4056 319° Northwest  Level Estimated
Fri 05:20:00 AM 30.1219 31.4056 319° Northwest  Level Estimated
Fri 05:21:00 AM 30.1219 31.4056 319° Northwest  Level Estimated
Fri 05:22:00 AM 30.1219 31.4056 319° Northwest  Level Estimated
Fri 05:23:00 AM 30.1219 31.4056 319° Northwest  Level Estimated
Fri 05:24:00 AM 30.1219 31.4056 319° Northwest  Level Estimated
Fri 05:25:00 AM 30.1219 31.4056 319° Northwest  Level Estimated
Fri 05:26:00 AM 30.1219 31.4056 319° Northwest  Level Estimated
Fri 05:27:00 AM 30.1219 31.4056 319° Northwest  Level Estimated
Fri 05:28:00 AM 30.1219 31.4056 319° Northwest  Level Estimated
Fri 05:29:00 AM 30.1219 31.4056 319° Northwest  Level Estimated
Fri 05:30:00 AM 30.1219 31.4056 319° Northwest  Level Estimated
Fri 05:31:00 AM 30.1219 31.4056 319° Northwest  Level Estimated
Fri 05:32:00 AM 30.1219 31.4056 319° Northwest  Level Estimated
Fri 05:33:00 AM 30.1219 31.4056 319° Northwest  Level Estimated
Fri 05:34:00 AM 30.1219 31.4056 319° Northwest  Level Estimated
Fri 05:35:00 AM 30.1219 31.4056 319° Northwest  Level Estimated
Fri 05:36:00 AM 30.1219 31.4056 319° Northwest  Level Estimated
Fri 05:37:00 AM 30.1219 31.4056 319° Northwest  Level Estimated
Fri 05:38:00 AM 30.1219 31.4056 319° Northwest  Level Estimated
Fri 05:39:00 AM 30.1219 31.4056 319° Northwest  Level Estimated
Fri 05:40:00 AM 30.1219 31.4056 319° Northwest  Level Estimated
Fri 05:41:00 AM 30.1219 31.4056 319° Northwest  Level Estimated
Fri 05:42:00 AM 30.1219 31.4056 319° Northwest  Level Estimated
Fri 05:43:00 AM 30.1219 31.4056 319° Northwest  Level Estimated
Fri 05:44:00 AM 30.1219 31.4056 319° Northwest  Level Estimated
Fri 05:45:00 AM 30.1219 31.4056 319° Northwest  Level Estimated
Fri 05:46:00 AM 30.1219 31.4056 319° Northwest  Level Estimated
Fri 05:47:00 AM 30.1219 31.4056 319° Northwest  Level Estimated
Fri 05:48:00 AM 30.1219 31.4056 319° Northwest  Level Estimated
Fri 05:49:00 AM 30.1219 31.4056 319° Northwest  Level Estimated
Fri 05:50:00 AM 30.1219 31.4056 319° Northwest  Level Estimated
Fri 05:51:00 AM 30.1219 31.4056 319° Northwest  Level Estimated
Fri 05:52:00 AM 30.1219 31.4056 319° Northwest  Level Estimated
Fri 05:53:00 AM 30.1219 31.4056 319° Northwest  Level Estimated
Fri 05:54:00 AM 30.1219 31.4056 319° Northwest  Level Estimated
Fri 05:55:00 AM 30.1219 31.4056 319° Northwest  Level Estimated
Fri 05:56:00 AM 30.1219 31.4056 319° Northwest  Level Estimated
Fri 05:57:00 AM 30.1219 31.4056 319° Northwest  Level Estimated
Fri 05:58:00 AM 30.1219 31.4056 319° Northwest  Level Estimated
Fri 05:59:00 AM 30.1219 31.4056 319° Northwest  Level Estimated
Fri 06:00:00 AM 30.1219 31.4056 319° Northwest  Level Estimated
Fri 06:01:00 AM 30.1219 31.4056 319° Northwest  Level Estimated
Fri 06:02:00 AM 30.1219 31.4056 319° Northwest  Level Estimated
Fri 06:03:00 AM 30.1219 31.4056 319° Northwest  Level Estimated
Fri 06:04:00 AM 30.1219 31.4056 319° Northwest  Level Estimated
Fri 06:05:00 AM 30.1219 31.4056 319° Northwest  Level Estimated
Fri 06:06:00 AM 30.1219 31.4056 319° Northwest  Level Estimated
Fri 06:07:00 AM 30.1219 31.4056 319° Northwest  Level Estimated
Fri 06:08:00 AM 30.1219 31.4056 319° Northwest  Level Estimated
Fri 06:09:00 AM 30.1219 31.4056 319° Northwest  Level Estimated
Fri 06:10:00 AM 30.1219 31.4056 319° Northwest  Level Estimated
Fri 06:11:00 AM 30.1219 31.4056 319° Northwest  Level Estimated
Fri 06:12:00 AM 30.1219 31.4056 319° Northwest  Level Estimated
Fri 06:13:00 AM 30.1219 31.4056 319° Northwest  Level Estimated
Fri 06:14:00 AM 30.1219 31.4056 319° Northwest  Level Estimated
Fri 06:15:00 AM 30.1219 31.4056 319° Northwest  Level Estimated
Fri 06:16:00 AM 30.1219 31.4056 319° Northwest  Level Estimated
Fri 06:17:00 AM 30.1219 31.4056 319° Northwest  Level Estimated
Fri 06:18:00 AM 30.1219 31.4056 319° Northwest  Level Estimated
Fri 06:19:00 AM 30.1219 31.4056 319° Northwest  Level Estimated
Fri 06:20:00 AM 30.1219 31.4056 319° Northwest  Level Estimated
Fri 06:21:00 AM 30.1219 31.4056 319° Northwest  Level Estimated
Fri 06:22:00 AM 30.1219 31.4056 319° Northwest  Level Estimated
Fri 06:23:00 AM 30.1219 31.4056 319° Northwest  Level Estimated
Fri 06:24:00 AM 30.1219 31.4056 319° Northwest  Level Estimated
Fri 06:25:00 AM 30.1219 31.4056 319° Northwest  Level Estimated
Fri 06:26:00 AM 30.1219 31.4056 319° Northwest  Level Estimated
Fri 06:27:00 AM 30.1219 31.4056 319° Northwest  Level Estimated
Fri 06:28:00 AM 30.1219 31.4056 319° Northwest  Level Estimated
Fri 06:29:00 AM 30.1219 31.4056 319° Northwest  Level Estimated
Fri 06:30:00 AM 30.1219 31.4056 319° Northwest  Level Estimated
Fri 06:31:00 AM 30.1219 31.4056 319° Northwest  Level Estimated
Fri 06:32:00 AM 30.1219 31.4056 319° Northwest  Level Estimated
Fri 06:33:00 AM 30.1219 31.4056 319° Northwest  Level Estimated
Fri 06:34:00 AM 30.1219 31.4056 319° Northwest  Level Estimated
Fri 06:35:00 AM 30.1219 31.4056 319° Northwest  Level Estimated
Fri 06:36:00 AM 30.1219 31.4056 319° Northwest  Level Estimated
Fri 06:37:00 AM 30.1219 31.4056 319° Northwest  Level Estimated
Fri 06:38:00 AM 30.1219 31.4056 319° Northwest  Level Estimated
Fri 06:39:00 AM 30.1219 31.4056 319° Northwest  Level Estimated
Fri 06:40:00 AM 30.1219 31.4056 319° Northwest  Level Estimated
Fri 06:41:00 AM 30.1219 31.4056 319° Northwest  Level Estimated
Fri 06:42:00 AM 30.1219 31.4056 319° Northwest  Level Estimated
Fri 06:43:00 AM 30.1219 31.4056 319° Northwest  Level Estimated
Fri 06:44:00 AM 30.1219 31.4056 319° Northwest  Level Estimated
Fri 06:45:00 AM 30.1219 31.4056 319° Northwest  Level Estimated
Fri 06:46:00 AM 30.1219 31.4056 319° Northwest  Level Estimated
Fri 06:47:00 AM 30.1219 31.4056 319° Northwest  Level Estimated
Fri 06:48:00 AM 30.1219 31.4056 319° Northwest  Level Estimated
Fri 06:49:00 AM 30.1219 31.4056 319° Northwest  Level Estimated
Fri 06:50:00 AM 30.1219 31.4056 319° Northwest  Level Estimated
Fri 06:51:00 AM 30.1219 31.4056 319° Northwest  Level Estimated
Fri 06:52:00 AM 30.1219 31.4056 319° Northwest  Level Estimated
Fri 06:53:00 AM 30.1219 31.4056 319° Northwest  Level Estimated
Fri 06:54:00 AM 30.1219 31.4056 319° Northwest  Level Estimated
Fri 06:55:00 AM 30.1219 31.4056 319° Northwest  Level Estimated
Fri 06:56:00 AM 30.1219 31.4056 319° Northwest  Level Estimated
Fri 06:57:00 AM 30.1219 31.4056 319° Northwest  Level Estimated
Fri 06:58:00 AM 30.1219 31.4056 319° Northwest  Level Estimated
Fri 06:59:00 AM 30.1219 31.4056 319° Northwest  Level Estimated
Fri 07:00:00 AM 30.1219 31.4056 319° Northwest  Level Estimated
Fri 07:01:00 AM 30.1219 31.4056 319° Northwest  Level Estimated
Fri 07:02:00 AM 30.1219 31.4056 319° Northwest  Level Estimated
Fri 07:03:00 AM 30.1219 31.4056 319° Northwest  Level Estimated
Fri 07:04:00 AM 30.1219 31.4056 319° Northwest  Level Estimated
Fri 07:05:00 AM 30.1219 31.4056 319° Northwest  Level Estimated
Fri 07:06:00 AM 30.1219 31.4056 319° Northwest  Level Estimated
Fri 07:07:00 AM 30.1219 31.4056 319° Northwest  Level Estimated
Fri 07:08:00 AM 30.1219 31.4056 319° Northwest  Level Estimated
Fri 07:09:00 AM 30.1219 31.4056 319° Northwest  Level Estimated
Fri 07:10:00 AM 30.1219 31.4056 319° Northwest  Level Estimated
Fri 07:11:00 AM 30.1219 31.4056 319° Northwest  Level Estimated
Fri 07:12:00 AM 30.1219 31.4056 319° Northwest  Level Estimated
Fri 07:13:00 AM 30.1219 31.4056 319° Northwest  Level Estimated
Fri 07:14:00 AM 30.1219 31.4056 319° Northwest  Level Estimated
Fri 07:15:00 AM 30.1219 31.4056 319° Northwest  Level Estimated
Fri 07:16:00 AM 30.1219 31.4056 319° Northwest  Level Estimated
Fri 07:17:00 AM 30.1219 31.4056 319° Northwest  Level Estimated
Fri 07:18:00 AM 30.1219 31.4056 319° Northwest  Level Estimated
Fri 07:19:00 AM 30.1219 31.4056 319° Northwest  Level Estimated
Fri 07:20:00 AM 30.1219 31.4056 319° Northwest  Level Estimated
Fri 07:21:00 AM 30.1219 31.4056 319° Northwest  Level Estimated
Fri 07:22:00 AM 30.1219 31.4056 319° Northwest  Level Estimated
Fri 07:23:00 AM 30.1219 31.4056 319° Northwest  Level Estimated
Fri 07:24:00 AM 30.1219 31.4056 319° Northwest  Level Estimated
Fri 07:25:00 AM 30.1219 31.4056 319° Northwest  Level Estimated
Fri 07:26:00 AM 30.1219 31.4056 319° Northwest  Level Estimated
Fri 07:27:00 AM 30.1219 31.4056 319° Northwest  Level Estimated
Fri 07:28:00 AM 30.1219 31.4056 319° Northwest  Level Estimated
Fri 07:29:00 AM 30.1219 31.4056 319° Northwest  Level Estimated
Fri 07:30:00 AM 30.1219 31.4056 319° Northwest  Level Estimated
Fri 07:31:00 AM 30.1219 31.4056 319° Northwest  Level Estimated
Fri 07:32:00 AM 30.1219 31.4056 319° Northwest  Level Estimated
Fri 07:33:00 AM 30.1219 31.4056 319° Northwest  Level Estimated
Fri 07:34:00 AM 30.1219 31.4056 319° Northwest  Level Estimated
Fri 07:35:00 AM 30.1219 31.4056 319° Northwest  Level Estimated
Fri 07:36:00 AM 30.1219 31.4056 319° Northwest  Level Estimated
Fri 07:37:00 AM 30.1219 31.4056 319° Northwest  Level Estimated
Fri 07:38:00 AM 30.1219 31.4056 319° Northwest  Level Estimated
Fri 07:39:00 AM 30.1219 31.4056 319° Northwest  Level Estimated
Fri 07:40:00 AM 30.1219 31.4056 319° Northwest  Level Estimated
Fri 07:41:00 AM 30.1219 31.4056 319° Northwest  Level Estimated
Fri 07:42:00 AM 30.1219 31.4056 319° Northwest  Level Estimated
Fri 07:43:00 AM 30.1219 31.4056 319° Northwest  Level Estimated
Fri 07:44:00 AM 30.1219 31.4056 319° Northwest  Level Estimated
Fri 07:45:00 AM 30.1219 31.4056 319° Northwest  Level Estimated
Fri 07:46:00 AM 30.1219 31.4056 319° Northwest  Level Estimated
Fri 07:47:00 AM 30.1219 31.4056 319° Northwest  Level Estimated
Fri 07:48:00 AM 30.1219 31.4056 319° Northwest  Level Estimated
Fri 07:49:00 AM 30.1219 31.4056 319° Northwest  Level Estimated
Fri 07:50:00 AM 30.1219 31.4056 319° Northwest  Level Estimated
Fri 07:51:00 AM 30.1219 31.4056 319° Northwest  Level Estimated
Fri 07:52:00 AM 30.1219 31.4056 319° Northwest  Level Estimated
Fri 07:53:00 AM 30.1219 31.4056 319° Northwest  Level Estimated
Fri 07:54:00 AM 30.1219 31.4056 319° Northwest  Level Estimated
Fri 07:55:00 AM 30.1219 31.4056 319° Northwest  Level Estimated
Fri 07:56:00 AM 30.1219 31.4056 319° Northwest  Level Estimated
Fri 07:57:00 AM 30.1219 31.4056 319° Northwest  Level Estimated
Fri 07:58:00 AM 30.1219 31.4056 319° Northwest  Level Estimated
Fri 07:59:00 AM 30.1219 31.4056 319° Northwest  Level Estimated
Fri 08:00:00 AM 30.1219 31.4056 319° Northwest  Level Estimated
Fri 08:01:00 AM 30.1219 31.4056 319° Northwest  Level Estimated
Fri 08:02:00 AM 30.1219 31.4056 319° Northwest  Level Estimated
Fri 08:03:00 AM 30.1219 31.4056 319° Northwest  Level Estimated
Fri 08:04:00 AM 30.1219 31.4056 319° Northwest  Level Estimated
Fri 08:05:00 AM 30.1219 31.4056 319° Northwest  Level Estimated
Fri 08:06:00 AM 30.1219 31.4056 319° Northwest  Level Estimated
Fri 08:07:00 AM 30.1219 31.4056 319° Northwest  Level Estimated
Fri 08:08:00 AM 30.1219 31.4056 319° Northwest  Level Estimated
Fri 08:09:00 AM 30.1219 31.4056 319° Northwest  Level Estimated
Fri 08:10:00 AM 30.1219 31.4056 319° Northwest  Level Estimated
Fri 08:11:00 AM 30.1219 31.4056 319° Northwest  Level Estimated
Fri 08:12:00 AM 30.1219 31.4056 319° Northwest  Level Estimated
Fri 08:13:00 AM 30.1219 31.4056 319° Northwest  Level Estimated
Fri 08:14:00 AM 30.1219 31.4056 319° Northwest  Level Estimated
Fri 08:15:00 AM 30.1219 31.4056 319° Northwest  Level Estimated
Fri 08:16:00 AM 30.1219 31.4056 319° Northwest  Level Estimated
Fri 08:17:00 AM 30.1219 31.4056 319° Northwest  Level Estimated
Fri 08:18:00 AM 30.1219 31.4056 319° Northwest  Level Estimated
Fri 08:19:00 AM 30.1219 31.4056 319° Northwest  Level Estimated
Fri 08:20:00 AM 30.1219 31.4056 319° Northwest  Level Estimated
Fri 08:21:00 AM 30.1219 31.4056 319° Northwest  Level Estimated
Fri 08:22:00 AM 30.1219 31.4056 319° Northwest  Level Estimated
Fri 08:23:00 AM 30.1219 31.4056 319° Northwest  Level Estimated
Fri 08:24:00 AM 30.1219 31.4056 319° Northwest  Level Estimated
Fri 08:25:00 AM 30.1219 31.4056 319° Northwest  Level Estimated
Fri 08:26:00 AM 30.1219 31.4056 319° Northwest  Level Estimated
Fri 08:27:00 AM 30.1219 31.4056 319° Northwest  Level Estimated
Fri 08:28:00 AM 30.1219 31.4056 319° Northwest  Level Estimated
Fri 08:29:00 AM 30.1219 31.4056 319° Northwest  Level Estimated
Fri 08:30:00 AM 30.1219 31.4056 319° Northwest  Level Estimated
Fri 08:31:00 AM 30.1219 31.4056 319° Northwest  Level Estimated
Fri 08:32:00 AM 30.1219 31.4056 319° Northwest  Level Estimated
Fri 08:33:00 AM 30.1219 31.4056 319° Northwest  Level Estimated
Fri 08:34:00 AM 30.1219 31.4056 319° Northwest  Level Estimated
Fri 08:35:00 AM 30.1219 31.4056 319° Northwest  Level Estimated
Fri 08:36:00 AM 30.1219 31.4056 319° Northwest  Level Estimated
Fri 08:37:00 AM 30.1219 31.4056 319° Northwest  Level Estimated
Fri 08:38:00 AM 30.1219 31.4056 319° Northwest  Level Estimated
Fri 08:39:00 AM 30.1219 31.4056 319° Northwest  Level Estimated
Fri 08:40:00 AM 30.1219 31.4056 319° Northwest  Level Estimated
Fri 08:41:00 AM 30.1219 31.4056 319° Northwest  Level Estimated
Fri 08:42:00 AM 30.1219 31.4056 319° Northwest  Level Estimated
Fri 08:43:00 AM 30.1219 31.4056 319° Northwest  Level Estimated
Fri 08:44:00 AM 30.1219 31.4056 319° Northwest  Level Estimated
Fri 08:45:00 AM 30.1219 31.4056 319° Northwest  Level Estimated
Fri 08:46:00 AM 30.1219 31.4056 319° Northwest  Level Estimated
Fri 08:47:00 AM 30.1219 31.4056 319° Northwest  Level Estimated
Fri 08:48:00 AM 30.1219 31.4056 319° Northwest  Level Estimated
Fri 08:49:00 AM 30.1219 31.4056 319° Northwest  Level Estimated
Fri 08:50:00 AM 30.1219 31.4056 319° Northwest  Level Estimated
Fri 08:51:00 AM 30.1219 31.4056 319° Northwest  Level Estimated
Fri 08:52:00 AM 30.1219 31.4056 319° Northwest  Level Estimated
Fri 08:53:00 AM 30.1219 31.4056 319° Northwest  Level Estimated
Fri 08:54:00 AM 30.1219 31.4056 319° Northwest  Level Estimated
Fri 08:55:00 AM 30.1219 31.4056 319° Northwest  Level Estimated
Fri 08:56:00 AM 30.1219 31.4056 319° Northwest  Level Estimated
Fri 08:57:00 AM 30.1219 31.4056 319° Northwest  Level Estimated
Fri 08:58:00 AM 30.1219 31.4056 319° Northwest  Level Estimated
Fri 08:59:00 AM 30.1219 31.4056 319° Northwest  Level Estimated
Fri 09:00:00 AM 30.1219 31.4056 319° Northwest  Level Estimated
Fri 09:01:00 AM 30.1219 31.4056 319° Northwest  Level Estimated
Fri 09:02:00 AM 30.1219 31.4056 319° Northwest  Level Estimated
Fri 09:03:00 AM 30.1219 31.4056 319° Northwest  Level Estimated
Fri 09:04:00 AM 30.1219 31.4056 319° Northwest  Level Estimated
Fri 09:05:00 AM 30.1219 31.4056 319° Northwest  Level Estimated
Fri 09:06:00 AM 30.1219 31.4056 319° Northwest  Level Estimated
Fri 09:07:00 AM 30.1219 31.4056 319° Northwest  Level Estimated
Fri 09:08:00 AM 30.1219 31.4056 319° Northwest  Level Estimated
Fri 09:09:00 AM 30.1219 31.4056 319° Northwest  Level Estimated
Fri 09:10:00 AM 30.1219 31.4056 319° Northwest  Level Estimated
Fri 09:11:00 AM 30.1219 31.4056 319° Northwest  Level Estimated
Fri 09:12:00 AM 30.1219 31.4056 319° Northwest  Level Estimated
Fri 09:13:00 AM 30.1219 31.4056 319° Northwest  Level Estimated
Fri 09:14:00 AM 30.1219 31.4056 319° Northwest  Level Estimated
Fri 09:15:00 AM 30.1219 31.4056 319° Northwest  Level Estimated
Fri 09:16:00 AM 30.1219 31.4056 319° Northwest  Level Estimated
Fri 09:17:00 AM 30.1219 31.4056 319° Northwest  Level Estimated
Fri 09:18:00 AM 30.1219 31.4056 319° Northwest  Level Estimated
Fri 09:19:00 AM 30.1219 31.4056 319° Northwest  Level Estimated
Fri 09:20:00 AM 30.1219 31.4056 319° Northwest  Level Estimated
Fri 09:21:00 AM 30.1219 31.4056 319° Northwest  Level Estimated
Fri 09:22:00 AM 30.1219 31.4056 319° Northwest  Level Estimated
Fri 09:23:00 AM 30.1219 31.4056 319° Northwest  Level Estimated
Fri 09:24:00 AM 30.1219 31.4056 319° Northwest  Level Estimated
Fri 09:25:00 AM 30.1219 31.4056 319° Northwest  Level Estimated
Fri 09:26:00 AM 30.1219 31.4056 319° Northwest  Level Estimated
Fri 09:27:00 AM 30.1219 31.4056 319° Northwest  Level Estimated
Fri 09:28:00 AM 30.1219 31.4056 319° Northwest  Level Estimated
Fri 09:29:00 AM 30.1219 31.4056 319° Northwest  Level Estimated
Fri 09:30:00 AM 30.1219 31.4056 319° Northwest  Level Estimated
Fri 09:31:00 AM 30.1219 31.4056 319° Northwest  Level Estimated
Fri 09:32:00 AM 30.1219 31.4056 319° Northwest  Level Estimated
Fri 09:33:00 AM 30.1219 31.4056 319° Northwest  Level Estimated
Fri 09:34:00 AM 30.1219 31.4056 319° Northwest  Level Estimated
Fri 09:35:00 AM 30.1219 31.4056 319° Northwest  Level Estimated
Fri 09:36:00 AM 30.1219 31.4056 319° Northwest  Level Estimated
Fri 09:37:00 AM 30.1219 31.4056 319° Northwest  Level Estimated
Fri 09:38:00 AM 30.1219 31.4056 319° Northwest  Level Estimated
Fri 09:39:00 AM 30.1219 31.4056 319° Northwest  Level Estimated
Fri 09:40:00 AM 30.1219 31.4056 319° Northwest  Level Estimated
Fri 09:41:00 AM 30.1219 31.4056 319° Northwest  Level Estimated
Fri 09:42:00 AM 30.1219 31.4056 319° Northwest  Level Estimated
Fri 09:43:00 AM 30.1219 31.4056 319° Northwest  Level Estimated
Fri 09:44:00 AM 30.1219 31.4056 319° Northwest  Level Estimated
Fri 09:45:00 AM 30.1219 31.4056 319° Northwest  Level Estimated
Fri 09:46:00 AM 30.1219 31.4056 319° Northwest  Level Estimated
Fri 09:47:00 AM 30.1219 31.4056 319° Northwest  Level Estimated
Fri 09:48:00 AM 30.1219 31.4056 319° Northwest  Level Estimated
Fri 09:49:00 AM 30.1219 31.4056 319° Northwest  Level Estimated
Fri 09:50:00 AM 30.1219 31.4056 319° Northwest  Level Estimated
Fri 09:51:00 AM 30.1219 31.4056 319° Northwest  Level Estimated
Fri 09:52:00 AM 30.1219 31.4056 319° Northwest  Level Estimated
Fri 09:53:00 AM 30.1219 31.4056 319° Northwest  Level Estimated
Fri 09:54:00 AM 30.1219 31.4056 319° Northwest  Level Estimated
Fri 09:55:00 AM 30.1219 31.4056 319° Northwest  Level Estimated
Fri 09:56:00 AM 30.1219 31.4056 319° Northwest  Level Estimated
Fri 09:57:00 AM 30.1219 31.4056 319° Northwest  Level Estimated
Fri 09:58:00 AM 30.1219 31.4056 319° Northwest  Level Estimated
Fri 09:59:00 AM 30.1219 31.4056 319° Northwest  Level Estimated
Fri 10:00:00 AM 30.1219 31.4056 319° Northwest  Level Estimated
Fri 10:01:00 AM 30.1219 31.4056 319° Northwest  Level Estimated
Fri 10:02:00 AM 30.1219 31.4056 319° Northwest  Level Estimated
Fri 10:03:00 AM 30.1219 31.4056 319° Northwest  Level Estimated
Fri 10:04:00 AM 30.1219 31.4056 319° Northwest  Level Estimated
Fri 10:05:00 AM 30.1219 31.4056 319° Northwest  Level Estimated
Fri 10:06:00 AM 30.1219 31.4056 319° Northwest  Level Estimated
Fri 10:07:00 AM 30.1219 31.4056 319° Northwest  Level Estimated
Fri 10:08:00 AM 30.1219 31.4056 319° Northwest  Level Estimated
Fri 10:09:00 AM 30.1219 31.4056 319° Northwest  Level Estimated
Fri 10:10:00 AM 30.1219 31.4056 319° Northwest  Level Estimated
Fri 10:11:00 AM 30.1219 31.4056 319° Northwest  Level Estimated
Fri 10:12:00 AM 30.1219 31.4056 319° Northwest  Level Estimated
Fri 10:13:00 AM 30.1219 31.4056 319° Northwest  Level Estimated
Fri 10:14:00 AM 30.1219 31.4056 319° Northwest  Level Estimated
Fri 10:15:00 AM 30.1219 31.4056 319° Northwest  Level Estimated
Fri 10:16:00 AM 30.1219 31.4056 319° Northwest  Level Estimated
Fri 10:17:00 AM 30.1219 31.4056 319° Northwest  Level Estimated
Fri 10:18:00 AM 30.1219 31.4056 319° Northwest  Level Estimated
Fri 10:19:00 AM 30.1219 31.4056 319° Northwest  Level Estimated
Fri 10:20:00 AM 30.1219 31.4056 319° Northwest  Level Estimated
Fri 10:21:00 AM 30.1219 31.4056 319° Northwest  Level Estimated
Fri 10:22:00 AM 30.1219 31.4056 319° Northwest  Level Estimated
Fri 10:23:00 AM 30.1219 31.4056 319° Northwest  Level Estimated
Fri 10:24:00 AM 30.1219 31.4056 319° Northwest  Level Estimated
Fri 10:25:00 AM 30.1219 31.4056 319° Northwest  Level Estimated
Fri 10:26:00 AM 30.1219 31.4056 319° Northwest  Level Estimated
Fri 10:27:00 AM 30.1219 31.4056 319° Northwest  Level Estimated
Fri 10:28:00 AM 30.1219 31.4056 319° Northwest  Level Estimated
Fri 10:29:00 AM 30.1219 31.4056 319° Northwest  Level Estimated
Fri 10:30:00 AM 30.1219 31.4056 319° Northwest  Level Estimated
Fri 10:31:00 AM 30.1219 31.4056 319° Northwest  Level Estimated
Fri 10:32:00 AM 30.1219 31.4056 319° Northwest  Level Estimated
Fri 10:33:00 AM 30.1219 31.4056 319° Northwest  Level Estimated
Fri 10:34:00 AM 30.1219 31.4056 319° Northwest  Level Estimated
Fri 10:35:00 AM 30.1219 31.4056 319° Northwest  Level Estimated
Fri 10:36:00 AM 30.1219 31.4056 319° Northwest  Level Estimated
Fri 10:37:00 AM 30.1219 31.4056 319° Northwest  Level Estimated
Fri 10:38:00 AM 30.1219 31.4056 319° Northwest  Level Estimated
Fri 10:39:00 AM 30.1219 31.4056 319° Northwest  Level Estimated
Fri 10:40:00 AM 30.1219 31.4056 319° Northwest  Level Estimated
Fri 10:41:00 AM 30.1219 31.4056 319° Northwest  Level Estimated
Fri 10:42:00 AM 30.1219 31.4056 319° Northwest  Level Estimated
Fri 10:43:00 AM 30.1219 31.4056 319° Northwest  Level Estimated
Fri 10:44:00 AM 30.1219 31.4056 319° Northwest  Level Estimated
Fri 10:45:00 AM 30.1219 31.4056 319° Northwest  Level Estimated
Fri 10:46:00 AM 30.1219 31.4056 319° Northwest  Level Estimated
Fri 10:47:00 AM 30.1219 31.4056 319° Northwest  Level Estimated
Fri 10:48:00 AM 30.1219 31.4056 319° Northwest  Level Estimated
Fri 10:49:00 AM 30.1219 31.4056 319° Northwest  Level Estimated
Fri 10:50:00 AM 30.1219 31.4056 319° Northwest  Level Estimated
Fri 10:51:00 AM 30.1219 31.4056 319° Northwest  Level Estimated
Fri 10:52:00 AM 30.1219 31.4056 319° Northwest  Level Estimated
Fri 10:53:00 AM 30.1219 31.4056 319° Northwest  Level Estimated
Fri 10:54:00 AM 30.1219 31.4056 319° Northwest  Level Estimated
Fri 10:55:00 AM 30.1219 31.4056 319° Northwest  Level Estimated
Fri 10:56:00 AM 30.1219 31.4056 319° Northwest  Level Estimated
Fri 10:57:00 AM 30.1219 31.4056 319° Northwest  Level Estimated
Fri 10:58:00 AM 30.1219 31.4056 319° Northwest  Level Estimated
Fri 10:59:00 AM 30.1219 31.4056 319° Northwest  Level Estimated
Fri 11:00:00 AM 30.1219 31.4056 319° Northwest  Level Estimated
Fri 11:01:00 AM 30.1219 31.4056 319° Northwest  Level Estimated
Fri 11:02:00 AM 30.1219 31.4056 319° Northwest  Level Estimated
Fri 11:03:00 AM 30.1219 31.4056 319° Northwest  Level Estimated
Fri 11:04:00 AM 30.1219 31.4056 319° Northwest  Level Estimated
Fri 11:05:00 AM 30.1219 31.4056 319° Northwest  Level Estimated
Fri 11:06:00 AM 30.1219 31.4056 319° Northwest  Level Estimated
Fri 11:07:00 AM 30.1219 31.4056 319° Northwest  Level Estimated
Fri 11:08:00 AM 30.1219 31.4056 319° Northwest  Level Estimated
Fri 11:09:00 AM 30.1219 31.4056 319° Northwest  Level Estimated
Fri 11:10:00 AM 30.1219 31.4056 319° Northwest  Level Estimated
Fri 11:11:00 AM 30.1219 31.4056 319° Northwest  Level Estimated
Fri 11:12:00 AM 30.1219 31.4056 319° Northwest  Level Estimated
Fri 11:13:00 AM 30.1219 31.4056 319° Northwest  Level Estimated
Fri 11:14:00 AM 30.1219 31.4056 319° Northwest  Level Estimated
Fri 11:15:00 AM 30.1219 31.4056 319° Northwest  Level Estimated
Fri 11:16:00 AM 30.1219 31.4056 319° Northwest  Level Estimated
Fri 11:17:00 AM 30.1219 31.4056 319° Northwest  Level Estimated
Fri 11:18:00 AM 30.1219 31.4056 319° Northwest  Level Estimated
Fri 11:19:00 AM 30.1219 31.4056 319° Northwest  Level Estimated
Fri 11:20:00 AM 30.1219 31.4056 319° Northwest  Level Estimated
Fri 11:21:00 AM 30.1219 31.4056 319° Northwest  Level Estimated
Fri 11:22:00 AM 30.1219 31.4056 319° Northwest  Level Estimated
Fri 11:23:00 AM 30.1219 31.4056 319° Northwest  Level Estimated
Fri 11:24:00 AM 30.1219 31.4056 319° Northwest  Level Estimated
Fri 11:25:00 AM 30.1219 31.4056 319° Northwest  Level Estimated
Fri 11:26:00 AM 30.1219 31.4056 319° Northwest  Level Estimated
Fri 11:27:00 AM 30.1219 31.4056 319° Northwest  Level Estimated
Fri 11:28:00 AM 30.1219 31.4056 319° Northwest  Level Estimated
Fri 11:29:00 AM 30.1219 31.4056 319° Northwest  Level Estimated
Fri 11:30:00 AM 30.1219 31.4056 319° Northwest  Level Estimated
Fri 11:31:00 AM 30.1219 31.4056 319° Northwest  Level Estimated
Fri 11:32:00 AM 30.1219 31.4056 319° Northwest  Level Estimated
Fri 11:33:00 AM 30.1219 31.4056 319° Northwest  Level Estimated
Fri 11:34:00 AM 30.1219 31.4056 319° Northwest  Level Estimated
Fri 11:35:00 AM 30.1219 31.4056 319° Northwest  Level Estimated
Fri 11:36:00 AM 30.1219 31.4056 319° Northwest  Level Estimated
Fri 11:37:00 AM 30.1219 31.4056 319° Northwest  Level Estimated
Fri 11:38:00 AM 30.1219 31.4056 319° Northwest  Level Estimated
Fri 11:39:00 AM 30.1219 31.4056 319° Northwest  Level Estimated
Fri 11:40:00 AM 30.1219 31.4056 319° Northwest  Level Estimated
Fri 11:41:00 AM 30.1219 31.4056 319° Northwest  Level Estimated
Fri 11:42:00 AM 30.1219 31.4056 319° Northwest  Level Estimated
Fri 11:43:00 AM 30.1219 31.4056 319° Northwest  Level Estimated
Fri 11:44:00 AM 30.1219 31.4056 319° Northwest  Level Estimated
Fri 11:45:00 AM 30.1219 31.4056 319° Northwest  Level Estimated
Fri 11:46:00 AM 30.1219 31.4056 319° Northwest  Level Estimated
Fri 11:47:00 AM 30.1219 31.4056 319° Northwest  Level Estimated
Fri 11:48:00 AM 30.1219 31.4056 319° Northwest  Level Estimated
Fri 11:49:00 AM 30.1219 31.4056 319° Northwest  Level Estimated
Fri 11:50:00 AM 30.1219 31.4056 319° Northwest  Level Estimated
Fri 11:51:00 AM 30.1219 31.4056 319° Northwest  Level Estimated
Fri 11:52:00 AM 30.1219 31.4056 319° Northwest  Level Estimated
Fri 11:53:00 AM 30.1219 31.4056 319° Northwest  Level Estimated
Fri 11:54:00 AM 30.1219 31.4056 319° Northwest  Level Estimated
Fri 11:55:00 AM 30.1219 31.4056 319° Northwest  Level Estimated
Fri 11:56:00 AM 30.1219 31.4056 319° Northwest  Level Estimated
Fri 11:57:00 AM 30.1219 31.4056 319° Northwest  Level Estimated
Fri 11:58:00 AM 30.1219 31.4056 319° Northwest  Level Estimated
Fri 11:59:00 AM 30.1219 31.4056 319° Northwest  Level Estimated
Fri 12:00:00 PM 30.1219 31.4056 319° Northwest  Level Estimated
Fri 12:01:00 PM 30.1219 31.4056 319° Northwest  Level Estimated
Fri 12:02:00 PM 30.1219 31.4056 319° Northwest  Level Estimated
Fri 12:03:00 PM 30.1219 31.4056 319° Northwest  Level Estimated
Fri 12:04:00 PM 30.1219 31.4056 319° Northwest  Level Estimated
Fri 12:05:00 PM 30.1219 31.4056 319° Northwest  Level Estimated
Fri 12:06:00 PM 30.1219 31.4056 319° Northwest  Level Estimated
Fri 12:07:00 PM 30.1219 31.4056 319° Northwest  Level Estimated
Fri 12:08:00 PM 30.1219 31.4056 319° Northwest  Level Estimated
Fri 12:09:00 PM 30.1219 31.4056 319° Northwest  Level Estimated
Fri 12:10:00 PM 30.1219 31.4056 319° Northwest  Level Estimated
Fri 12:11:00 PM 30.1219 31.4056 319° Northwest  Level Estimated
Fri 12:12:00 PM 30.1219 31.4056 319° Northwest  Level Estimated
Fri 12:13:00 PM 30.1219 31.4056 319° Northwest  Level Estimated
Fri 12:14:00 PM 30.1219 31.4056 319° Northwest  Level Estimated
Fri 12:15:00 PM 30.1219 31.4056 319° Northwest  Level Estimated
Fri 12:16:00 PM 30.1219 31.4056 319° Northwest  Level Estimated
Fri 12:17:00 PM 30.1219 31.4056 319° Northwest  Level Estimated
Fri 12:18:00 PM 30.1219 31.4056 319° Northwest  Level Estimated
Fri 12:19:00 PM 30.1219 31.4056 319° Northwest  Level Estimated
Fri 12:20:00 PM 30.1219 31.4056 319° Northwest  Level Estimated
Fri 12:21:00 PM 30.1219 31.4056 319° Northwest  Level Estimated
Fri 12:22:00 PM 30.1219 31.4056 319° Northwest  Level Estimated
Fri 12:23:00 PM 30.1219 31.4056 319° Northwest  Level Estimated
Fri 12:24:00 PM 30.1219 31.4056 319° Northwest  Level Estimated
Fri 12:25:00 PM 30.1219 31.4056 319° Northwest  Level Estimated
Fri 12:26:00 PM 30.1219 31.4056 319° Northwest  Level Estimated
Fri 12:27:00 PM 30.1219 31.4056 319° Northwest  Level Estimated
Fri 12:28:00 PM 30.1219 31.4056 319° Northwest  Level Estimated
Fri 12:29:00 PM 30.1219 31.4056 319° Northwest  Level Estimated
Fri 12:30:00 PM 30.1219 31.4056 319° Northwest  Level Estimated
Fri 12:31:00 PM 30.1219 31.4056 319° Northwest  Level Estimated
Fri 12:32:00 PM 30.1219 31.4056 319° Northwest  Level Estimated
Fri 12:33:00 PM 30.1219 31.4056 319° Northwest  Level Estimated
Fri 12:34:00 PM 30.1219 31.4056 319° Northwest  Level Estimated
Fri 12:35:00 PM 30.1219 31.4056 319° Northwest  Level Estimated
Fri 12:36:00 PM 30.1219 31.4056 319° Northwest  Level Estimated
Fri 12:37:00 PM 30.1219 31.4056 319° Northwest  Level Estimated
Fri 12:38:00 PM 30.1219 31.4056 319° Northwest  Level Estimated
Fri 12:39:00 PM 30.1219 31.4056 319° Northwest  Level Estimated
Fri 12:40:00 PM 30.1219 31.4056 319° Northwest  Level Estimated
Fri 12:41:00 PM 30.1219 31.4056 319° Northwest  Level Estimated
Fri 12:42:00 PM 30.1219 31.4056 319° Northwest  Level Estimated
Fri 12:43:00 PM 30.1219 31.4056 319° Northwest  Level Estimated
Fri 12:44:00 PM 30.1219 31.4056 319° Northwest  Level Estimated
Fri 12:45:00 PM 30.1219 31.4056 319° Northwest  Level Estimated
Fri 12:46:00 PM 30.1219 31.4056 319° Northwest  Level Estimated
Fri 12:47:00 PM 30.1219 31.4056 319° Northwest  Level Estimated
Fri 12:48:00 PM 30.1219 31.4056 319° Northwest  Level Estimated
Fri 12:49:00 PM 30.1219 31.4056 319° Northwest  Level Estimated
Fri 12:50:00 PM 30.1219 31.4056 319° Northwest  Level Estimated
Fri 12:51:00 PM 30.1219 31.4056 319° Northwest  Level Estimated
Fri 12:52:00 PM 30.1219 31.4056 319° Northwest  Level Estimated
Fri 12:53:00 PM 30.1219 31.4056 319° Northwest  Level Estimated
Fri 12:54:00 PM 30.1219 31.4056 319° Northwest  Level Estimated
Fri 12:55:00 PM 30.1219 31.4056 319° Northwest  Level Estimated
Fri 12:56:00 PM 30.1219 31.4056 319° Northwest  Level Estimated
Fri 12:57:00 PM 30.1219 31.4056 319° Northwest  Level Estimated
Fri 12:58:00 PM 30.1219 31.4056 319° Northwest  Level Estimated
Fri 12:59:00 PM 30.1219 31.4056 319° Northwest  Level Estimated
Fri 01:00:00 PM 30.1219 31.4056 319° Northwest  Level Estimated
Fri 01:01:00 PM 30.1219 31.4056 319° Northwest  Level Estimated
Fri 01:02:00 PM 30.1219 31.4056 319° Northwest  Level Estimated
Fri 01:03:00 PM 30.1219 31.4056 319° Northwest  Level Estimated
Fri 01:04:00 PM 30.1219 31.4056 319° Northwest  Level Estimated
Fri 01:05:00 PM 30.1219 31.4056 319° Northwest  Level Estimated
Fri 01:06:00 PM 30.1219 31.4056 319° Northwest  Level Estimated
Fri 01:07:00 PM 30.1219 31.4056 319° Northwest  Level Estimated
Fri 01:08:00 PM 30.1219 31.4056 319° Northwest  Level Estimated
Fri 01:09:00 PM 30.1219 31.4056 319° Northwest  Level Estimated
Fri 01:10:00 PM 30.1219 31.4056 319° Northwest  Level Estimated
Fri 01:11:00 PM 30.1219 31.4056 319° Northwest  Level Estimated
Fri 01:12:00 PM 30.1219 31.4056 319° Northwest  Level Estimated
Fri 01:13:00 PM 30.1219 31.4056 319° Northwest  Level Estimated
Fri 01:14:00 PM 30.1219 31.4056 319° Northwest  Level Estimated
Fri 01:15:00 PM 30.1219 31.4056 319° Northwest  Level Estimated
Fri 01:16:00 PM 30.1219 31.4056 319° Northwest  Level Estimated
Fri 01:17:00 PM 30.1219 31.4056 319° Northwest  Level Estimated
Fri 01:18:00 PM 30.1219 31.4056 319° Northwest  Level Estimated
Fri 01:19:00 PM 30.1219 31.4056 319° Northwest  Level Estimated
Fri 01:20:00 PM 30.1219 31.4056 319° Northwest  Level Estimated
Fri 01:21:00 PM 30.1219 31.4056 319° Northwest  Level Estimated
Fri 01:22:00 PM 30.1219 31.4056 319° Northwest  Level Estimated
Fri 01:23:00 PM 30.1219 31.4056 319° Northwest  Level Estimated
Fri 01:24:00 PM 30.1219 31.4056 319° Northwest  Level Estimated
Fri 01:25:00 PM 30.1219 31.4056 319° Northwest  Level Estimated
Fri 01:26:00 PM 30.1219 31.4056 319° Northwest  Level Estimated
Fri 01:27:00 PM 30.1219 31.4056 319° Northwest  Level Estimated
Fri 01:28:00 PM 30.1219 31.4056 319° Northwest  Level Estimated
Fri 01:29:00 PM 30.1219 31.4056 319° Northwest  Level Estimated
Fri 01:30:00 PM 30.1219 31.4056 319° Northwest  Level Estimated
Fri 01:31:00 PM 30.1219 31.4056 319° Northwest  Level Estimated
Fri 01:32:00 PM 30.1219 31.4056 319° Northwest  Level Estimated
Fri 01:33:00 PM 30.1219 31.4056 319° Northwest  Level Estimated
Fri 01:34:00 PM 30.1219 31.4056 319° Northwest  Level Estimated
Fri 01:35:00 PM 30.1219 31.4056 319° Northwest  Level Estimated
Fri 01:36:00 PM 30.1219 31.4056 319° Northwest  Level Estimated
Fri 01:37:00 PM 30.1219 31.4056 319° Northwest  Level Estimated
Fri 01:38:00 PM 30.1219 31.4056 319° Northwest  Level Estimated
Fri 01:39:00 PM 30.1219 31.4056 319° Northwest  Level Estimated
Fri 01:40:00 PM 30.1219 31.4056 319° Northwest  Level Estimated
Fri 01:41:00 PM 30.1219 31.4056 319° Northwest  Level Estimated
Fri 01:42:00 PM 30.1219 31.4056 319° Northwest  Level Estimated
Fri 01:43:00 PM 30.1219 31.4056 319° Northwest  Level Estimated
Fri 01:44:00 PM 30.1219 31.4056 319° Northwest  Level Estimated
Fri 01:45:00 PM 30.1219 31.4056 319° Northwest  Level Estimated
Fri 01:46:00 PM 30.1219 31.4056 319° Northwest  Level Estimated
Fri 01:47:00 PM 30.1219 31.4056 319° Northwest  Level Estimated
Fri 01:48:00 PM 30.1219 31.4056 319° Northwest  Level Estimated
Fri 01:49:00 PM 30.1219 31.4056 319° Northwest  Level Estimated
Fri 01:50:00 PM 30.1219 31.4056 319° Northwest  Level Estimated
Fri 01:51:00 PM 30.1219 31.4056 319° Northwest  Level Estimated
Fri 01:52:00 PM 30.1219 31.4056 319° Northwest  Level Estimated
Fri 01:53:00 PM 30.1219 31.4056 319° Northwest  Level Estimated
Fri 01:54:00 PM 30.1219 31.4056 319° Northwest  Level Estimated
Fri 01:55:00 PM 30.1219 31.4056 319° Northwest  Level Estimated
Fri 01:56:00 PM 30.1219 31.4056 319° Northwest  Level Estimated
Fri 01:57:00 PM 30.1219 31.4056 319° Northwest  Level Estimated
Fri 01:58:00 PM 30.1219 31.4056 319° Northwest  Level Estimated
Fri 01:59:00 PM 30.1219 31.4056 319° Northwest  Level Estimated
Fri 02:00:00 PM 30.1219 31.4056 319° Northwest  Level Estimated
Fri 02:01:00 PM 30.1219 31.4056 319° Northwest  Level Estimated
Fri 02:02:00 PM 30.1219 31.4056 319° Northwest  Level Estimated
Fri 02:03:00 PM 30.1219 31.4056 319° Northwest  Level Estimated
Fri 02:04:00 PM 30.1219 31.4056 319° Northwest  Level Estimated
Fri 02:05:00 PM 30.1219 31.4056 319° Northwest  Level Estimated
Fri 02:06:00 PM 30.1219 31.4056 319° Northwest  Level Estimated
Fri 02:07:00 PM 30.1219 31.4056 319° Northwest  Level Estimated
Fri 02:08:00 PM 30.1219 31.4056 319° Northwest  Level Estimated
Fri 02:09:00 PM 30.1219 31.4056 319° Northwest  Level Estimated
Fri 02:10:00 PM 30.1219 31.4056 319° Northwest  Level Estimated
Fri 02:11:00 PM 30.1219 31.4056 319° Northwest  Level Estimated
Fri 02:12:00 PM 30.1219 31.4056 319° Northwest  Level Estimated
Fri 02:13:00 PM 30.1219 31.4056 319° Northwest  Level Estimated
Fri 02:14:00 PM 30.1219 31.4056 319° Northwest  Level Estimated
Fri 02:15:00 PM 30.1219 31.4056 319° Northwest  Level Estimated
Fri 02:16:00 PM 30.1219 31.4056 319° Northwest  Level Estimated
Fri 02:17:00 PM 30.1219 31.4056 319° Northwest  Level Estimated
Fri 02:18:00 PM 30.1219 31.4056 319° Northwest  Level Estimated
Fri 02:19:00 PM 30.1219 31.4056 319° Northwest  Level Estimated
Fri 02:20:00 PM 30.1219 31.4056 319° Northwest  Level Estimated
Fri 02:21:00 PM 30.1219 31.4056 319° Northwest  Level Estimated
Fri 02:22:00 PM 30.1219 31.4056 319° Northwest  Level Estimated
Fri 02:23:00 PM 30.1219 31.4056 319° Northwest  Level Estimated
Fri 02:24:00 PM 30.1219 31.4056 319° Northwest  Level Estimated
Fri 02:25:00 PM 30.1219 31.4056 319° Northwest  Level Estimated
Fri 02:26:00 PM 30.1219 31.4056 319° Northwest  Level Estimated
Fri 02:27:00 PM 30.1219 31.4056 319° Northwest  Level Estimated
Fri 02:28:00 PM 30.1219 31.4056 319° Northwest  Level Estimated
Fri 02:29:00 PM 30.1219 31.4056 319° Northwest  Level Estimated
Fri 02:30:00 PM 30.1219 31.4056 319° Northwest  Level Estimated
Fri 02:31:00 PM 30.1219 31.4056 319° Northwest  Level Estimated
Fri 02:32:00 PM 30.1219 31.4056 319° Northwest  Level Estimated
Fri 02:33:00 PM 30.1219 31.4056 319° Northwest  Level Estimated
Fri 02:34:00 PM 30.1219 31.4056 319° Northwest  Level Estimated
Fri 02:35:00 PM 30.1219 31.4056 319° Northwest  Level Estimated
Fri 02:36:00 PM 30.1219 31.4056 319° Northwest  Level Estimated
Fri 02:37:00 PM 30.1219 31.4056 319° Northwest  Level Estimated
Fri 02:38:00 PM 30.1219 31.4056 319° Northwest  Level Estimated
Fri 02:39:00 PM 30.1219 31.4056 319° Northwest  Level Estimated
Fri 02:40:00 PM 30.1219 31.4056 319° Northwest  Level Estimated
Fri 02:41:00 PM 30.1219 31.4056 319° Northwest  Level Estimated
Fri 02:42:00 PM 30.1219 31.4056 319° Northwest  Level Estimated
Fri 02:43:00 PM 30.1219 31.4056 319° Northwest  Level Estimated
Fri 02:44:00 PM 30.1219 31.4056 319° Northwest  Level Estimated
Fri 02:45:00 PM 30.1219 31.4056 319° Northwest  Level Estimated
Fri 02:46:00 PM 30.1219 31.4056 319° Northwest  Level Estimated
Fri 02:47:00 PM 30.1219 31.4056 319° Northwest  Level Estimated
Fri 02:48:00 PM 30.1219 31.4056 319° Northwest  Level Estimated
Fri 02:49:00 PM 30.1219 31.4056 319° Northwest  Level Estimated
Fri 02:50:00 PM 30.1219 31.4056 319° Northwest  Level Estimated
Fri 02:51:00 PM 30.1219 31.4056 319° Northwest  Level Estimated
Fri 02:52:00 PM 30.1219 31.4056 319° Northwest  Level Estimated
Fri 02:53:00 PM 30.1219 31.4056 319° Northwest  Level Estimated
Fri 02:54:00 PM 30.1219 31.4056 319° Northwest  Level Estimated
Fri 02:55:00 PM 30.1219 31.4056 319° Northwest  Level Estimated
Fri 02:56:00 PM 30.1219 31.4056 319° Northwest  Level Estimated
Fri 02:57:00 PM 30.1219 31.4056 319° Northwest  Level Estimated
Fri 02:58:00 PM 30.1219 31.4056 319° Northwest  Level Estimated
Fri 02:59:00 PM 30.1219 31.4056 319° Northwest  Level Estimated
Fri 03:00:00 PM 30.1219 31.4056 319° Northwest  Level Estimated
Fri 03:01:00 PM 30.1219 31.4056 319° Northwest  Level Estimated
Fri 03:02:00 PM 30.1219 31.4056 319° Northwest  Level Estimated
Fri 03:03:00 PM 30.1219 31.4056 319° Northwest  Level Estimated
Fri 03:04:00 PM 30.1219 31.4056 319° Northwest  Level Estimated
Fri 03:05:00 PM 30.1219 31.4056 319° Northwest  Level Estimated
Fri 03:06:00 PM 30.1219 31.4056 319° Northwest  Level Estimated
Fri 03:07:00 PM 30.1219 31.4056 319° Northwest  Level Estimated
Fri 03:08:00 PM 30.1219 31.4056 319° Northwest  Level Estimated
Fri 03:09:00 PM 30.1219 31.4056 319° Northwest  Level Estimated
Fri 03:10:00 PM 30.1219 31.4056 319° Northwest  Level Estimated
Fri 03:11:00 PM 30.1219 31.4056 319° Northwest  Level Estimated
Fri 03:12:00 PM 30.1219 31.4056 319° Northwest  Level Estimated
Fri 03:13:00 PM 30.1219 31.4056 319° Northwest  Level Estimated
Fri 03:14:00 PM 30.1219 31.4056 319° Northwest  Level Estimated
Fri 03:15:00 PM 30.1219 31.4056 319° Northwest  Level Estimated
Fri 03:16:00 PM 30.1219 31.4056 319° Northwest  Level Estimated
Fri 03:17:00 PM 30.1219 31.4056 319° Northwest  Level Estimated
Fri 03:18:00 PM 30.1219 31.4056 319° Northwest  Level Estimated
Fri 03:19:00 PM 30.1219 31.4056 319° Northwest  Level Estimated
Fri 03:20:00 PM 30.1219 31.4056 319° Northwest  Level Estimated
Fri 03:21:00 PM 30.1219 31.4056 319° Northwest  Level Estimated
Fri 03:22:00 PM 30.1219 31.4056 319° Northwest  Level Estimated
Fri 03:23:00 PM 30.1219 31.4056 319° Northwest  Level Estimated
Fri 03:24:00 PM 30.1219 31.4056 319° Northwest  Level Estimated
Fri 03:25:00 PM 30.1219 31.4056 319° Northwest  Level Estimated
Fri 03:26:00 PM 30.1219 31.4056 319° Northwest  Level Estimated
Fri 03:27:00 PM 30.1219 31.4056 319° Northwest  Level Estimated
Fri 03:28:00 PM 30.1219 31.4056 319° Northwest  Level Estimated
Fri 03:29:00 PM 30.1219 31.4056 319° Northwest  Level Estimated
Fri 03:30:00 PM 30.1219 31.4056 319° Northwest  Level Estimated
Fri 03:31:00 PM 30.1219 31.4056 319° Northwest  Level Estimated
Fri 03:32:00 PM 30.1219 31.4056 319° Northwest  Level Estimated
Fri 03:33:00 PM 30.1219 31.4056 319° Northwest  Level Estimated
Fri 03:34:00 PM 30.1219 31.4056 319° Northwest  Level Estimated
Fri 03:35:00 PM 30.1219 31.4056 319° Northwest  Level Estimated
Fri 03:36:00 PM 30.1219 31.4056 319° Northwest  Level Estimated
Fri 03:37:00 PM 30.1219 31.4056 319° Northwest  Level Estimated
Fri 03:38:00 PM 30.1219 31.4056 319° Northwest  Level Estimated
Fri 03:39:00 PM 30.1219 31.4056 319° Northwest  Level Estimated
Fri 03:40:00 PM 30.1219 31.4056 319° Northwest  Level Estimated
Fri 03:41:00 PM 30.1219 31.4056 319° Northwest  Level Estimated
Fri 03:42:00 PM 30.1219 31.4056 319° Northwest  Level Estimated
Fri 03:43:00 PM 30.1219 31.4056 319° Northwest  Level Estimated
Fri 03:44:00 PM 30.1219 31.4056 319° Northwest  Level Estimated
Fri 03:45:00 PM 30.1219 31.4056 319° Northwest  Level Estimated
Fri 03:46:00 PM 30.1219 31.4056 319° Northwest  Level Estimated
Fri 03:47:00 PM 30.1219 31.4056 319° Northwest  Level Estimated
Fri 03:48:00 PM 30.1219 31.4056 319° Northwest  Level Estimated
Fri 03:49:00 PM 30.1219 31.4056 319° Northwest  Level Estimated
Fri 03:50:00 PM 30.1219 31.4056 319° Northwest  Level Estimated
Fri 03:51:00 PM 30.1219 31.4056 319° Northwest  Level Estimated
Fri 03:52:00 PM 30.1219 31.4056 319° Northwest  Level Estimated
Fri 03:53:00 PM 30.1219 31.4056 319° Northwest  Level Estimated
Fri 03:54:00 PM 30.1219 31.4056 319° Northwest  Level Estimated
Fri 03:55:00 PM 30.1219 31.4056 319° Northwest  Level Estimated
Fri 03:56:00 PM 30.1219 31.4056 319° Northwest  Level Estimated
Fri 03:57:00 PM 30.1219 31.4056 319° Northwest  Level Estimated
Fri 03:58:00 PM 30.1219 31.4056 319° Northwest  Level Estimated
Fri 03:59:00 PM 30.1219 31.4056 319° Northwest  Level Estimated
Fri 04:00:00 PM 30.1219 31.4056 319° Northwest  Level Estimated
Fri 04:01:00 PM 30.1219 31.4056 319° Northwest  Level Estimated
Fri 04:02:00 PM 30.1219 31.4056 319° Northwest  Level Estimated
Fri 04:03:00 PM 30.1219 31.4056 319° Northwest  Level Estimated
Fri 04:04:00 PM 30.1219 31.4056 319° Northwest  Level Estimated
Fri 04:05:00 PM 30.1219 31.4056 319° Northwest  Level Estimated
Fri 04:06:00 PM 30.1219 31.4056 319° Northwest  Level Estimated
Fri 04:07:00 PM 30.1219 31.4056 319° Northwest  Level Estimated
Fri 04:08:00 PM 30.1219 31.4056 319° Northwest  Level Estimated
Fri 04:09:00 PM 30.1219 31.4056 319° Northwest  Level Estimated
Fri 04:10:00 PM 30.1219 31.4056 319° Northwest  Level Estimated
Fri 04:11:00 PM 30.1219 31.4056 319° Northwest  Level Estimated
Fri 04:12:00 PM 30.1219 31.4056 319° Northwest  Level Estimated
Fri 04:13:00 PM 30.1219 31.4056 319° Northwest  Level Estimated
Fri 04:14:00 PM 30.1219 31.4056 319° Northwest  Level Estimated
Fri 04:15:00 PM 30.1219 31.4056 319° Northwest  Level Estimated
Fri 04:16:00 PM 30.1219 31.4056 319° Northwest  Level Estimated
Fri 04:17:00 PM 30.1219 31.4056 319° Northwest  Level Estimated
Fri 04:18:00 PM 30.1219 31.4056 319° Northwest  Level Estimated
Fri 04:19:00 PM 30.1219 31.4056 319° Northwest  Level Estimated
Fri 04:20:00 PM 30.1219 31.4056 319° Northwest  Level Estimated
Fri 04:21:00 PM 30.1219 31.4056 319° Northwest  Level Estimated
Fri 04:22:00 PM 30.1219 31.4056 319° Northwest  Level Estimated
Fri 04:23:00 PM 30.1219 31.4056 319° Northwest  Level Estimated
Fri 04:24:00 PM 30.1219 31.4056 319° Northwest  Level Estimated
Fri 04:25:00 PM 30.1219 31.4056 319° Northwest  Level Estimated
Fri 04:26:00 PM 30.1219 31.4056 319° Northwest  Level Estimated
Fri 04:27:00 PM 30.1219 31.4056 319° Northwest  Level Estimated
Fri 04:28:00 PM 30.1219 31.4056 319° Northwest  Level Estimated
Fri 04:29:00 PM 30.1219 31.4056 319° Northwest  Level Estimated
Fri 04:30:00 PM 30.1219 31.4056 319° Northwest  Level Estimated
Fri 04:31:00 PM 30.1219 31.4056 319° Northwest  Level Estimated
Fri 04:32:00 PM 30.1219 31.4056 319° Northwest  Level Estimated
Fri 04:33:00 PM 30.1219 31.4056 319° Northwest  Level Estimated
Fri 04:34:00 PM 30.1219 31.4056 319° Northwest  Level Estimated
Fri 04:35:00 PM 30.1219 31.4056 319° Northwest  Level Estimated
Fri 04:36:00 PM 30.1219 31.4056 319° Northwest  Level Estimated
Fri 04:37:00 PM 30.1219 31.4056 319° Northwest  Level Estimated
Fri 04:38:00 PM 30.1219 31.4056 319° Northwest  Level Estimated
Fri 04:39:00 PM 30.1219 31.4056 319° Northwest  Level Estimated
Fri 04:40:00 PM 30.1219 31.4056 319° Northwest  Level Estimated
Fri 04:41:00 PM 30.1219 31.4056 319° Northwest  Level Estimated
Fri 04:42:00 PM 30.1219 31.4056 319° Northwest  Level Estimated
Fri 04:43:00 PM 30.1219 31.4056 319° Northwest  Level Estimated
Fri 04:44:00 PM 30.1219 31.4056 319° Northwest  Level Estimated
Fri 04:45:00 PM 30.1219 31.4056 319° Northwest  Level Estimated
Fri 04:46:00 PM 30.1219 31.4056 319° Northwest  Level Estimated
Fri 04:47:00 PM 30.1219 31.4056 319° Northwest  Level Estimated
Fri 04:48:00 PM 30.1219 31.4056 319° Northwest  Level Estimated
Fri 04:49:00 PM 30.1219 31.4056 319° Northwest  Level Estimated
Fri 04:50:00 PM 30.1219 31.4056 319° Northwest  Level Estimated
Fri 04:51:00 PM 30.1219 31.4056 319° Northwest  Level Estimated
Fri 04:52:00 PM 30.1219 31.4056 319° Northwest  Level Estimated
Fri 04:53:00 PM 30.1219 31.4056 319° Northwest  Level Estimated
Fri 04:54:00 PM 30.1219 31.4056 319° Northwest  Level Estimated
Fri 04:55:00 PM 30.1219 31.4056 319° Northwest  Level Estimated
Fri 04:56:00 PM 30.1219 31.4056 319° Northwest  Level Estimated
Fri 04:57:00 PM 30.1219 31.4056 319° Northwest  Level Estimated
Fri 04:58:00 PM 30.1219 31.4056 319° Northwest  Level Estimated
Fri 04:59:00 PM 30.1219 31.4056 319° Northwest  Level Estimated
Fri 05:00:00 PM 30.1219 31.4056 319° Northwest  Level Estimated
Fri 05:01:00 PM 30.1219 31.4056 319° Northwest  Level Estimated
Fri 05:02:00 PM 30.1219 31.4056 319° Northwest  Level Estimated
Fri 05:03:00 PM 30.1219 31.4056 319° Northwest  Level Estimated
Fri 05:04:00 PM 30.1219 31.4056 319° Northwest  Level Estimated
Fri 05:05:00 PM 30.1219 31.4056 319° Northwest  Level Estimated
Fri 05:06:00 PM 30.1219 31.4056 319° Northwest  Level Estimated

Login

Don't have an account? Register now (free) for customized features, flight alerts, and more!